Data for 10/26/2006

Time Sea-Level Adjusted Pressure Absolute Pressure Temperature Relative Humidity Dew Point Precipitation   
(mb) (inHg) (mb) (inHg) (C) (F) (%) (C) (F) (mm) (in)
00:01 1026 30.3 855 25.25 -0.9 30.3 73 -5.1 22.8 0
00:02 1026 30.3 855 25.25 -0.7 30.7 72 -5.1 22.7 0
00:03 1026 30.3 855 25.25 -0.5 31.1 71 -5.1 22.7 0
00:04 1026 30.3 855 25.25 -0.3 31.4 71 -4.9 23.1 0
00:05 1026 30.3 855 25.25 -0.3 31.4 71 -4.9 23.2 0
00:06 1026 30.3 855 25.25 -0.3 31.4 71 -4.9 23.2 0
00:07 1026 30.3 855 25.25 -0.4 31.3 71 -5 23 0
00:08 1026 30.3 855 25.25 -0.5 31.1 72 -5 23 0
00:09 1026 30.3 855 25.25 -0.5 31.1 72 -4.9 23.1 0
00:10 1026 30.3 855 25.25 -0.5 31 73 -4.9 23.2 0
00:11 1026 30.3 855 25.25 -0.7 30.8 73 -4.9 23.3 0
00:12 1026 30.3 855 25.25 -0.7 30.7 73 -5 23 0
00:13 1026 30.3 855 25.25 -0.8 30.6 73 -5.1 22.9 0
00:14 1026 30.3 855 25.25 -0.8 30.5 73 -5.1 22.8 0
00:15 1026 30.3 855 25.25 -0.8 30.5 72 -5.2 22.7 0
00:16 1026 30.3 855 25.25 -0.8 30.6 72 -5.3 22.5 0
00:17 1026 30.3 855 25.25 -0.8 30.6 72 -5.2 22.7 0
00:18 1026 30.3 855 25.25 -0.6 30.8 70 -5.5 22.1 0
00:19 1026 30.3 855 25.25 -0.4 31.2 70 -5.2 22.6 0
00:20 1026 30.3 855 25.25 -0.5 31.2 71 -5.1 22.8 0
00:21 1026 30.3 855 25.25 -0.7 30.8 71 -5.3 22.5 0
00:22 1026 30.3 855 25.25 -0.9 30.4 72 -5.3 22.5 0
00:23 1026 30.3 855 25.25 -1 30.2 71 -5.6 21.9 0
00:24 1026 30.3 855 25.25 -0.9 30.3 72 -5.4 22.3 0
00:25 1026 30.3 855 25.25 -1 30.2 71 -5.5 22 0
00:26 1026 30.3 855 25.25 -1.1 30.1 72 -5.5 22.1 0
00:27 1026 30.3 855 25.25 -1.1 30 72 -5.5 22 0
00:28 1026 30.3 855 25.25 -1 30.2 72 -5.5 22.2 0
00:29 1026 30.3 855 25.25 -0.9 30.3 71 -5.6 22 0
00:30 1026 30.3 855 25.25 -1 30.2 71 -5.5 22 0
00:31 1026 30.3 855 25.25 -1.1 30.1 72 -5.5 22.2 0
00:32 1026 30.3 855 25.25 -1.1 29.9 73 -5.4 22.2 0
00:33 1026 30.3 855 25.25 -1.2 29.8 73 -5.4 22.3 0
00:34 1026 30.3 855 25.25 -1.3 29.7 73 -5.4 22.2 0
00:35 1026 30.3 855 25.25 -1.2 29.9 72 -5.5 22 0
00:36 1026 30.3 855 25.25 -1.2 29.9 73 -5.5 22.2 0
00:37 1026 30.3 855 25.25 -1.3 29.6 73 -5.5 22.1 0
00:38 1026 30.3 855 25.25 -1.4 29.4 74 -5.5 22.1 0
00:39 1026 30.3 855 25.25 -1.6 29.1 74 -5.6 21.9 0
00:40 1026 30.3 855 25.25 -1.7 28.9 75 -5.6 22 0
00:41 1026 30.3 855 25.25 -1.8 28.7 76 -5.5 22.1 0
00:42 1026 30.3 855 25.25 -1.8 28.7 75 -5.7 21.8 0
00:43 1026 30.3 855 25.25 -1.8 28.7 75 -5.7 21.7 0
00:44 1026 30.3 855 25.25 -1.9 28.6 75 -5.7 21.8 0
00:45 1026 30.3 855 25.25 -2 28.4 75 -5.8 21.6 0
00:46 1026 30.3 855 25.25 -2.1 28.2 76 -5.8 21.6 0
00:47 1026 30.3 855 25.25 -2 28.4 76 -5.7 21.8 0
00:48 1026 30.3 855 25.25 -2 28.5 76 -5.6 21.9 0
00:49 1026 30.3 855 25.25 -1.9 28.6 76 -5.6 21.9 0
00:50 1026 30.3 855 25.25 -1.9 28.6 76 -5.5 22 0
00:51 1026 30.3 855 25.25 -1.9 28.6 76 -5.6 21.9 0
00:52 1026 30.3 855 25.25 -1.8 28.7 75 -5.6 21.9 0
00:53 1026 30.3 855 25.25 -1.7 28.9 75 -5.6 21.9 0
00:54 1026 30.3 855 25.25 -1.5 29.4 73 -5.6 21.9 0
00:55 1026 30.3 855 25.25 -1.3 29.6 73 -5.5 22.1 0
00:56 1026 30.3 855 25.25 -1.4 29.5 73 -5.5 22 0
00:57 1026 30.3 855 25.25 -1.6 29.2 74 -5.6 22 0
00:58 1026 30.3 855 25.25 -1.7 29 75 -5.6 21.9 0
00:59 1026 30.3 855 25.25 -1.8 28.8 75 -5.6 22 0
01:00 1026 30.3 855 25.25 -1.9 28.7 76 -5.6 21.9 0
01:01 1026 30.3 855 25.25 -2 28.4 76 -5.7 21.8 0
01:02 1026 30.3 855 25.25 -2.2 28.1 76 -5.8 21.6 0
01:03 1026 30.3 855 25.25 -2.3 27.8 77 -5.8 21.6 0
01:04 1026 30.3 855 25.25 -2.4 27.8 77 -5.8 21.6 0
01:05 1026 30.3 856 25.28 -2.4 27.6 77 -5.8 21.5 0
01:06 1026 30.3 856 25.28 -2.4 27.7 78 -5.8 21.6 0
01:07 1026 30.3 856 25.28 -2.5 27.5 78 -5.8 21.5 0
01:08 1026 30.3 856 25.28 -2.6 27.4 78 -5.8 21.5 0
01:09 1026 30.3 856 25.28 -2.6 27.3 79 -5.8 21.6 0
01:10 1026 30.3 856 25.28 -2.6 27.3 79 -5.8 21.6 0
01:11 1026 30.3 856 25.28 -2.6 27.3 79 -5.8 21.5 0
01:12 1026 30.3 856 25.28 -2.6 27.3 79 -5.7 21.7 0
01:13 1026 30.3 856 25.28 -2.6 27.3 80 -5.7 21.8 0
01:14 1026 30.3 856 25.28 -2.7 27.2 80 -5.7 21.7 0
01:15 1026 30.3 856 25.28 -2.7 27.2 80 -5.7 21.7 0
01:16 1026 30.3 856 25.28 -2.8 27 80 -5.7 21.7 0
01:17 1026 30.3 856 25.28 -2.8 26.9 80 -5.7 21.7 0
01:18 1026 30.3 856 25.28 -2.9 26.9 80 -5.8 21.6 0
01:19 1026 30.3 856 25.28 -2.9 26.8 81 -5.8 21.6 0
01:20 1026 30.3 856 25.28 -2.9 26.7 81 -5.8 21.5 0
01:21 1026 30.3 856 25.28 -2.9 26.7 81 -5.8 21.5 0
01:22 1026 30.3 856 25.28 -3 26.5 81 -5.8 21.5 0
01:23 1026 30.3 856 25.28 -3.1 26.4 81 -5.9 21.3 0
01:24 1026 30.3 856 25.28 -3.1 26.4 82 -5.8 21.5 0
01:25 1026 30.3 856 25.28 -3.2 26.2 82 -5.9 21.3 0
01:26 1026 30.3 856 25.28 -3.3 26.1 82 -5.9 21.4 0
01:27 1026 30.3 856 25.28 -3.2 26.2 83 -5.8 21.6 0
01:28 1026 30.3 856 25.28 -3.2 26.2 83 -5.8 21.6 0
01:29 1026 30.3 856 25.28 -3.2 26.2 83 -5.8 21.6 0
01:30 1026 30.3 856 25.28 -3.2 26.2 83 -5.8 21.6 0
01:31 1026 30.3 856 25.28 -3.2 26.2 83 -5.8 21.6 0
01:32 1026 30.3 856 25.28 -3.2 26.2 82 -5.8 21.5 0
01:33 1026 30.3 856 25.28 -3.1 26.5 81 -5.9 21.3 0
01:34 1026 30.3 856 25.28 -3 26.5 81 -5.9 21.4 0
01:35 1026 30.3 856 25.28 -3.1 26.4 81 -6 21.2 0
01:36 1026 30.3 856 25.28 -3.2 26.3 81 -6 21.1 0
01:37 1026 30.3 856 25.28 -3.2 26.2 81 -6 21.1 0
01:38 1027 30.33 856 25.28 -3.3 26.1 81 -6 21.1 0
01:39 1027 30.33 856 25.28 -3.3 26.1 81 -6 21.1 0
01:40 1027 30.33 856 25.28 -3.3 26 82 -6 21.1 0
01:41 1027 30.33 856 25.28 -3.3 26.1 81 -6.1 21.1 0
01:42 1026 30.3 856 25.28 -3.4 25.9 82 -6.1 21 0
01:43 1026 30.3 856 25.28 -3.4 25.9 82 -6.1 21.1 0
01:44 1026 30.3 856 25.28 -3.5 25.8 82 -6.1 21 0
01:45 1026 30.3 856 25.28 -3.6 25.5 82 -6.2 20.8 0
01:46 1026 30.3 856 25.28 -3.7 25.3 83 -6.2 20.8 0
01:47 1026 30.3 856 25.28 -3.8 25.2 84 -6.1 21 0
01:48 1027 30.33 856 25.28 -3.6 25.5 83 -6.1 21 0
01:49 1027 30.33 856 25.28 -3.6 25.5 83 -6.1 21 0
01:50 1027 30.33 856 25.28 -3.5 25.6 82 -6.1 21 0
01:51 1027 30.33 856 25.28 -3.6 25.6 82 -6.2 20.9 0
01:52 1027 30.33 856 25.28 -3.6 25.5 82 -6.2 20.8 0
01:53 1027 30.33 856 25.28 -3.7 25.4 82 -6.3 20.7 0
01:54 1027 30.33 856 25.28 -3.8 25.1 83 -6.3 20.7 0
01:55 1027 30.33 856 25.28 -3.9 25 83 -6.4 20.6 0
01:56 1027 30.33 856 25.28 -4 24.8 84 -6.3 20.6 0
01:57 1026 30.3 856 25.28 -4 24.9 84 -6.3 20.7 0
01:58 1026 30.3 856 25.28 -3.9 25 84 -6.2 20.8 0
01:59 1026 30.3 856 25.28 -3.9 25 84 -6.2 20.9 0
02:00 1026 30.3 856 25.28 -3.7 25.3 83 -6.1 21 0
02:01 1027 30.33 856 25.28 -3.7 25.3 84 -6.1 21.1 0
02:02 1027 30.33 856 25.28 -3.6 25.6 84 -5.9 21.3 0
02:03 1027 30.33 856 25.28 -3.4 25.9 83 -5.9 21.4 0
02:04 1027 30.33 856 25.28 -3.3 26 82 -5.9 21.4 0
02:05 1026 30.3 856 25.28 -3.4 25.9 82 -6.1 21 0
02:06 1026 30.3 856 25.28 -3.4 25.8 82 -6.1 21.1 0
02:07 1026 30.3 856 25.28 -3.5 25.7 82 -6.1 21.1 0
02:08 1026 30.3 856 25.28 -3.5 25.7 83 -6 21.2 0
02:09 1026 30.3 856 25.28 -3.5 25.7 82 -6.1 21.1 0
02:10 1026 30.3 856 25.28 -3.6 25.6 82 -6.1 20.9 0
02:11 1027 30.33 856 25.28 -3.6 25.5 83 -6.1 21 0
02:12 1026 30.3 856 25.28 -3.7 25.3 84 -6.1 21 0
02:13 1026 30.3 856 25.28 -3.8 25.1 84 -6.1 21 0
02:14 1026 30.3 856 25.28 -3.9 25 85 -6.1 21 0
02:15 1026 30.3 856 25.28 -3.9 25 85 -6.1 21 0
02:16 1026 30.3 856 25.28 -3.9 24.9 85 -6.1 21 0
02:17 1027 30.33 856 25.28 -4 24.9 85 -6.1 21 0
02:18 1027 30.33 856 25.28 -4 24.8 85 -6.1 20.9 0
02:19 1027 30.33 856 25.28 -4 24.9 85 -6.1 20.9 0
02:20 1027 30.33 856 25.28 -3.9 24.9 85 -6.1 21 0
02:21 1027 30.33 856 25.28 -3.9 24.9 85 -6.1 21 0
02:22 1027 30.33 856 25.28 -3.9 25 85 -6.1 21.1 0
02:23 1027 30.33 856 25.28 -3.9 25.1 85 -6.1 21.1 0
02:24 1027 30.33 856 25.28 -3.8 25.2 85 -6 21.2 0
02:25 1027 30.33 856 25.28 -3.8 25.2 84 -6.1 21.1 0
02:26 1027 30.33 856 25.28 -3.7 25.3 84 -6 21.1 0
02:27 1027 30.33 856 25.28 -3.7 25.4 84 -6 21.3 0
02:28 1027 30.33 856 25.28 -3.7 25.4 84 -5.9 21.3 0
02:29 1027 30.33 856 25.28 -3.6 25.4 84 -5.9 21.3 0
02:30 1027 30.33 856 25.28 -3.6 25.5 84 -5.9 21.4 0
02:31 1027 30.33 856 25.28 -3.5 25.6 84 -5.9 21.4 0
02:32 1027 30.33 856 25.28 -3.5 25.6 84 -5.9 21.4 0
02:33 1027 30.33 856 25.28 -3.6 25.6 84 -5.9 21.4 0
02:34 1027 30.33 856 25.28 -3.6 25.4 84 -5.9 21.4 0
02:35 1027 30.33 856 25.28 -3.6 25.4 84 -5.9 21.3 0
02:36 1027 30.33 856 25.28 -3.7 25.4 85 -5.9 21.4 0
02:37 1027 30.33 856 25.28 -3.6 25.5 84 -5.9 21.4 0
02:38 1027 30.33 856 25.28 -3.6 25.6 84 -5.9 21.3 0
02:39 1027 30.33 856 25.28 -3.6 25.6 84 -6 21.3 0
02:40 1027 30.33 856 25.28 -3.5 25.7 83 -6 21.3 0
02:41 1027 30.33 856 25.28 -3.4 25.8 83 -6 21.2 0
02:42 1027 30.33 856 25.28 -3.3 26 82 -6 21.2 0
02:43 1027 30.33 856 25.28 -3.3 26.1 81 -6.1 21.1 0
02:44 1027 30.33 856 25.28 -3.2 26.2 81 -6 21.1 0
02:45 1027 30.33 856 25.28 -3.2 26.3 81 -6.1 21.1 0
02:46 1027 30.33 856 25.28 -3.1 26.4 80 -6.1 21 0
02:47 1027 30.33 856 25.28 -3.1 26.3 80 -6.1 21.1 0
02:48 1027 30.33 856 25.28 -3.2 26.2 80 -6.1 21 0
02:49 1027 30.33 856 25.28 -3.3 26.1 80 -6.2 20.8 0
02:50 1027 30.33 856 25.28 -3.3 26 81 -6.2 20.9 0
02:51 1027 30.33 856 25.28 -3.3 26.1 80 -6.2 20.9 0
02:52 1027 30.33 856 25.28 -3.2 26.3 80 -6.2 20.8 0
02:53 1027 30.33 856 25.28 -3 26.6 79 -6.2 20.9 0
02:54 1027 30.33 856 25.28 -2.9 26.8 78 -6.2 20.8 0
02:55 1027 30.33 856 25.28 -2.8 26.9 77 -6.2 20.8 0
02:56 1027 30.33 856 25.28 -2.7 27.1 76 -6.3 20.6 0
02:57 1027 30.33 856 25.28 -2.6 27.3 76 -6.2 20.8 0
02:58 1027 30.33 856 25.28 -2.6 27.3 76 -6.2 20.8 0
02:59 1027 30.33 856 25.28 -2.7 27.1 77 -6.2 20.8 0
03:00 1027 30.33 856 25.28 -2.8 26.9 77 -6.3 20.7 0
03:01 1027 30.33 856 25.28 -2.9 26.8 78 -6.3 20.7 0
03:02 1027 30.33 856 25.28 -3 26.6 78 -6.3 20.6 0
03:03 1027 30.33 856 25.28 -3 26.6 78 -6.3 20.6 0
03:04 1027 30.33 856 25.28 -3 26.6 78 -6.3 20.6 0
03:05 1027 30.33 856 25.28 -3.1 26.5 78 -6.3 20.6 0
03:06 1027 30.33 856 25.28 -3.2 26.3 78 -6.4 20.5 0
03:07 1027 30.33 856 25.28 -3.2 26.2 78 -6.4 20.4 0
03:08 1027 30.33 856 25.28 -3.2 26.2 78 -6.5 20.4 0
03:09 1027 30.33 856 25.28 -3.2 26.3 78 -6.4 20.5 0
03:10 1027 30.33 856 25.28 -3.3 26.1 78 -6.5 20.2 0
03:11 1027 30.33 856 25.28 -3.4 25.9 79 -6.6 20.2 0
03:12 1027 30.33 856 25.28 -3.5 25.8 79 -6.5 20.2 0
03:13 1027 30.33 856 25.28 -3.4 25.8 79 -6.6 20.2 0
03:14 1027 30.33 856 25.28 -3.4 25.9 79 -6.5 20.3 0
03:15 1027 30.33 856 25.28 -3.4 25.9 78 -6.6 20.1 0
03:16 1027 30.33 856 25.28 -3.4 25.8 78 -6.7 19.9 0
03:17 1027 30.33 856 25.28 -3.5 25.7 79 -6.7 20 0
03:18 1027 30.33 856 25.28 -3.6 25.6 79 -6.8 19.8 0
03:19 1027 30.33 856 25.28 -3.7 25.4 79 -6.8 19.8 0
03:20 1027 30.33 856 25.28 -3.7 25.3 80 -6.7 19.9 0
03:21 1027 30.33 856 25.28 -3.6 25.5 80 -6.7 20 0
03:22 1027 30.33 856 25.28 -3.6 25.6 79 -6.7 19.9 0
03:23 1027 30.33 856 25.28 -3.5 25.6 79 -6.8 19.8 0
03:24 1027 30.33 856 25.28 -3.6 25.5 79 -6.8 19.8 0
03:25 1027 30.33 856 25.28 -3.6 25.4 79 -6.8 19.8 0
03:26 1027 30.33 856 25.28 -3.7 25.3 79 -6.8 19.8 0
03:27 1027 30.33 856 25.28 -3.6 25.5 79 -6.7 19.9 0
03:28 1027 30.33 856 25.28 -3.5 25.7 79 -6.7 19.9 0
03:29 1027 30.33 856 25.28 -3.5 25.6 79 -6.7 19.9 0
03:30 1027 30.33 856 25.28 -3.6 25.6 79 -6.7 19.9 0
03:31 1027 30.33 856 25.28 -3.7 25.4 79 -6.8 19.8 0
03:32 1027 30.33 856 25.28 -3.7 25.3 79 -6.8 19.8 0
03:33 1027 30.33 856 25.28 -3.7 25.4 79 -6.8 19.8 0
03:34 1027 30.33 856 25.28 -3.6 25.5 79 -6.8 19.8 0
03:35 1027 30.33 856 25.28 -3.7 25.4 79 -6.8 19.7 0
03:36 1027 30.33 856 25.28 -3.7 25.4 79 -6.8 19.7 0
03:37 1027 30.33 856 25.28 -3.7 25.3 79 -6.9 19.6 0
03:38 1027 30.33 856 25.28 -3.6 25.6 78 -6.8 19.7 0
03:39 1027 30.33 856 25.28 -3.5 25.6 78 -6.8 19.8 0
03:40 1027 30.33 856 25.28 -3.5 25.7 79 -6.7 19.9 0
03:41 1027 30.33 856 25.28 -3.5 25.7 79 -6.7 19.9 0
03:42 1027 30.33 856 25.28 -3.5 25.7 79 -6.7 20 0
03:43 1027 30.33 856 25.28 -3.6 25.6 79 -6.7 20 0
03:44 1027 30.33 856 25.28 -3.6 25.6 79 -6.7 20 0
03:45 1027 30.33 856 25.28 -3.6 25.5 79 -6.7 20 0
03:46 1027 30.33 856 25.28 -3.6 25.5 79 -6.7 19.9 0
03:47 1027 30.33 856 25.28 -3.7 25.4 79 -6.8 19.8 0
03:48 1027 30.33 856 25.28 -3.6 25.5 79 -6.8 19.8 0
03:49 1027 30.33 856 25.28 -3.5 25.7 78 -6.8 19.8 0
03:50 1027 30.33 856 25.28 -3.4 25.8 78 -6.7 20 0
03:51 1027 30.33 856 25.28 -3.5 25.8 78 -6.8 19.8 0
03:52 1027 30.33 856 25.28 -3.4 25.9 78 -6.7 19.9 0
03:53 1027 30.33 856 25.28 -3.4 25.8 78 -6.7 19.9 0
03:54 1027 30.33 856 25.28 -3.5 25.7 78 -6.8 19.7 0
03:55 1027 30.33 856 25.28 -3.5 25.7 78 -6.8 19.8 0
03:56 1027 30.33 856 25.28 -3.4 25.8 78 -6.8 19.7 0
03:57 1027 30.33 856 25.28 -3.4 25.8 78 -6.8 19.7 0
03:58 1027 30.33 856 25.28 -3.4 25.9 77 -6.8 19.7 0
03:59 1027 30.33 856 25.28 -3.3 26 77 -6.9 19.6 0
04:00 1027 30.33 856 25.28 -3.3 26.1 76 -6.9 19.6 0
04:01 1027 30.33 856 25.28 -3.3 26.1 76 -6.9 19.6 0
04:02 1027 30.33 856 25.28 -3.3 26 77 -6.9 19.6 0
04:03 1027 30.33 856 25.28 -3.3 26 76 -6.9 19.5 0
04:04 1027 30.33 856 25.28 -3.3 26 76 -6.9 19.6 0
04:05 1027 30.33 856 25.28 -3.5 25.7 77 -7 19.4 0
04:06 1027 30.33 856 25.28 -3.6 25.5 77 -7.1 19.3 0
04:07 1027 30.33 856 25.28 -3.8 25.2 78 -7.1 19.3 0
04:08 1027 30.33 856 25.28 -3.8 25.1 79 -7 19.4 0
04:09 1027 30.33 856 25.28 -3.9 25 79 -7.1 19.3 0
04:10 1027 30.33 856 25.28 -3.9 25 79 -7.1 19.3 0
04:11 1027 30.33 856 25.28 -3.9 25 79 -7.1 19.2 0
04:12 1027 30.33 856 25.28 -3.9 24.9 78 -7.2 19.1 0
04:13 1027 30.33 856 25.28 -4 24.8 79 -7.1 19.2 0
04:14 1027 30.33 856 25.28 -4.1 24.7 80 -7.1 19.3 0
04:15 1027 30.33 856 25.28 -4 24.9 79 -7.1 19.3 0
04:16 1027 30.33 856 25.28 -3.9 25 78 -7.1 19.2 0
04:17 1027 30.33 856 25.28 -3.9 25.1 78 -7.1 19.2 0
04:18 1027 30.33 856 25.28 -3.8 25.1 78 -7.1 19.3 0
04:19 1027 30.33 856 25.28 -3.8 25.1 78 -7.1 19.2 0
04:20 1027 30.33 856 25.28 -3.9 25 78 -7.2 19.1 0
04:21 1027 30.33 856 25.28 -3.9 24.9 78 -7.2 19.1 0
04:22 1027 30.33 856 25.28 -4 24.9 78 -7.2 19 0
04:23 1027 30.33 856 25.28 -3.9 24.9 78 -7.2 19.1 0
04:24 1027 30.33 856 25.28 -4 24.9 78 -7.2 19 0
04:25 1027 30.33 856 25.28 -4 24.8 79 -7.2 19.1 0
04:26 1027 30.33 856 25.28 -3.9 24.9 78 -7.2 19 0
04:27 1027 30.33 856 25.28 -3.9 25.1 78 -7.2 19 0
04:28 1027 30.33 856 25.28 -3.9 25 78 -7.2 19 0
04:29 1027 30.33 856 25.28 -3.9 25 78 -7.2 19 0
04:30 1027 30.33 856 25.28 -3.9 25 78 -7.2 19 0
04:31 1027 30.33 856 25.28 -3.8 25.1 77 -7.2 19 0
04:32 1027 30.33 856 25.28 -3.8 25.1 77 -7.2 19 0
04:33 1027 30.33 856 25.28 -3.9 25 77 -7.3 18.9 0
04:34 1027 30.33 856 25.28 -3.9 24.9 77 -7.3 18.8 0
04:35 1027 30.33 856 25.28 -3.9 25 77 -7.3 18.9 0
04:36 1027 30.33 856 25.28 -3.9 24.9 78 -7.3 18.9 0
04:37 1027 30.33 856 25.28 -3.9 25 77 -7.3 18.8 0
04:38 1027 30.33 856 25.28 -3.9 25 77 -7.3 18.9 0
04:39 1027 30.33 856 25.28 -3.8 25.1 78 -7.2 19.1 0
04:40 1027 30.33 857 25.31 -3.7 25.3 77 -7.2 19 0
04:41 1027 30.33 857 25.31 -3.6 25.6 76 -7.2 19.1 0
04:42 1027 30.33 857 25.31 -3.5 25.7 75 -7.2 19 0
04:43 1027 30.33 857 25.31 -3.3 26.1 75 -7.1 19.2 0
04:44 1027 30.33 857 25.31 -3.2 26.3 74 -7.1 19.2 0
04:45 1027 30.33 857 25.31 -3.2 26.3 74 -7.2 19.1 0
04:46 1027 30.33 857 25.31 -3.3 26 74 -7.3 18.9 0
04:47 1027 30.33 857 25.31 -3.6 25.6 75 -7.4 18.7 0
04:48 1027 30.33 857 25.31 -3.7 25.3 77 -7.3 18.9 0
04:49 1027 30.33 856 25.28 -3.8 25.1 77 -7.3 18.9 0
04:50 1027 30.33 856 25.28 -3.8 25.1 77 -7.3 18.9 0
04:51 1027 30.33 856 25.28 -3.8 25.2 77 -7.2 19 0
04:52 1027 30.33 856 25.28 -3.7 25.3 77 -7.2 19 0
04:53 1027 30.33 856 25.28 -3.8 25.2 77 -7.2 19 0
04:54 1027 30.33 856 25.28 -3.8 25.2 78 -7.1 19.2 0
04:55 1027 30.33 856 25.28 -3.8 25.2 78 -7 19.3 0
04:56 1027 30.33 856 25.28 -3.7 25.3 78 -7 19.5 0
04:57 1027 30.33 856 25.28 -3.7 25.3 78 -7 19.5 0
04:58 1027 30.33 856 25.28 -3.6 25.5 78 -7 19.4 0
04:59 1027 30.33 856 25.28 -3.6 25.6 77 -7 19.4 0
05:00 1027 30.33 856 25.28 -3.5 25.6 77 -7 19.4 0
05:01 1027 30.33 856 25.28 -3.5 25.6 77 -7 19.4 0
05:02 1027 30.33 856 25.28 -3.5 25.7 77 -7 19.4 0
05:03 1027 30.33 856 25.28 -3.5 25.6 77 -7 19.4 0
05:04 1027 30.33 856 25.28 -3.6 25.6 77 -7 19.4 0
05:05 1027 30.33 856 25.28 -3.5 25.6 77 -7 19.3 0
05:06 1027 30.33 856 25.28 -3.6 25.5 77 -7 19.3 0
05:07 1027 30.33 856 25.28 -3.7 25.4 77 -7.1 19.1 0
05:08 1027 30.33 856 25.28 -3.7 25.3 77 -7.1 19.2 0
05:09 1027 30.33 856 25.28 -3.7 25.4 77 -7.2 19 0
05:10 1027 30.33 857 25.31 -3.6 25.5 76 -7.2 19.1 0
05:11 1027 30.33 856 25.28 -3.3 26 75 -7.1 19.2 0
05:12 1027 30.33 856 25.28 -3.3 26.1 75 -7.2 19.1 0
05:13 1027 30.33 857 25.31 -3.3 26.1 75 -7.2 19.1 0
05:14 1027 30.33 857 25.31 -3.3 26.1 74 -7.3 18.9 0
05:15 1027 30.33 857 25.31 -3.4 26 75 -7.1 19.2 0
05:16 1027 30.33 857 25.31 -3.3 26 75 -7.1 19.2 0
05:17 1027 30.33 857 25.31 -3.3 26.1 75 -7.1 19.3 0
05:18 1027 30.33 857 25.31 -3.2 26.3 74 -7.1 19.2 0
05:19 1027 30.33 857 25.31 -3 26.5 74 -7.1 19.2 0
05:20 1027 30.33 857 25.31 -2.9 26.7 73 -7.1 19.3 0
05:21 1028 30.36 857 25.31 -2.9 26.8 73 -7.1 19.3 0
05:22 1028 30.36 857 25.31 -2.8 26.9 73 -7 19.3 0
05:23 1028 30.36 857 25.31 -2.8 26.9 73 -7.1 19.2 0
05:24 1028 30.36 857 25.31 -2.8 26.9 72 -7.1 19.2 0
05:25 1027 30.33 857 25.31 -2.9 26.8 73 -7.1 19.3 0
05:26 1027 30.33 857 25.31 -2.8 26.9 73 -7 19.4 0
05:27 1027 30.33 857 25.31 -2.8 26.9 73 -7 19.3 0
05:28 1028 30.36 857 25.31 -2.8 27 73 -7 19.4 0
05:29 1028 30.36 857 25.31 -2.9 26.9 73 -7 19.5 0
05:30 1028 30.36 857 25.31 -2.9 26.8 73 -7.1 19.3 0
05:31 1028 30.36 857 25.31 -3.1 26.4 73 -7.2 19 0
05:32 1028 30.36 857 25.31 -3.4 25.9 74 -7.4 18.6 0
05:33 1028 30.36 857 25.31 -4 24.8 75 -7.7 18.1 0
05:34 1028 30.36 857 25.31 -4.5 23.9 78 -7.8 17.9 0
05:35 1028 30.36 857 25.31 -4.9 23.1 80 -7.9 17.7 0
05:36 1028 30.36 857 25.31 -5.2 22.7 81 -7.9 17.7 0
05:37 1028 30.36 857 25.31 -5.3 22.4 83 -7.7 18.1 0
05:38 1028 30.36 857 25.31 -5.2 22.6 82 -7.8 17.9 0
05:39 1028 30.36 857 25.31 -5.3 22.4 82 -8 17.7 0
05:40 1028 30.36 857 25.31 -5.4 22.2 83 -8 17.7 0
05:41 1028 30.36 857 25.31 -5.5 22.2 84 -7.8 17.9 0
05:42 1028 30.36 857 25.31 -5.4 22.3 83 -7.8 17.9 0
05:43 1028 30.36 857 25.31 -5.4 22.3 84 -7.7 18.1 0
05:44 1028 30.36 857 25.31 -5.4 22.3 83 -7.9 17.9 0
05:45 1028 30.36 857 25.31 -5.4 22.3 83 -7.8 17.9 0
05:46 1028 30.36 857 25.31 -5.6 22 82 -8.1 17.4 0
05:47 1028 30.36 857 25.31 -5.7 21.7 85 -7.9 17.9 0
05:48 1028 30.36 857 25.31 -5.8 21.5 85 -8 17.6 0
05:49 1028 30.36 857 25.31 -6 21.2 85 -8.1 17.5 0
05:50 1028 30.36 857 25.31 -6.2 20.9 86 -8.2 17.3 0
05:51 1028 30.36 857 25.31 -6.3 20.6 87 -8.2 17.3 0
05:52 1028 30.36 857 25.31 -6.4 20.4 88 -8.1 17.5 0
05:53 1028 30.36 857 25.31 -6.5 20.3 88 -8.2 17.2 0
05:54 1028 30.36 857 25.31 -6.6 20.1 88 -8.3 17 0
05:55 1028 30.36 857 25.31 -6.8 19.8 88 -8.4 16.9 0
05:56 1027 30.33 857 25.31 -6.9 19.6 89 -8.5 16.7 0
05:57 1027 30.33 857 25.31 -7 19.4 89 -8.5 16.7 0
05:58 1027 30.33 857 25.31 -7 19.4 89 -8.4 16.8 0
05:59 1027 30.33 857 25.31 -7 19.4 89 -8.5 16.7 0
06:00 1027 30.33 857 25.31 -7 19.4 90 -8.5 16.8 0
06:01 1027 30.33 857 25.31 -7 19.4 90 -8.4 17 0
06:02 1027 30.33 857 25.31 -6.9 19.5 90 -8.3 17 0
06:03 1027 30.33 857 25.31 -6.9 19.6 89 -8.4 16.9 0
06:04 1027 30.33 857 25.31 -7 19.5 89 -8.5 16.7 0
06:05 1027 30.33 857 25.31 -7 19.3 90 -8.4 16.8 0
06:06 1027 30.33 857 25.31 -7.1 19.3 91 -8.4 17 0
06:07 1027 30.33 857 25.31 -7.1 19.2 91 -8.4 16.9 0
06:08 1027 30.33 857 25.31 -7.1 19.2 91 -8.3 17 0
06:09 1028 30.36 857 25.31 -7.1 19.2 92 -8.2 17.2 0
06:10 1028 30.36 857 25.31 -7 19.3 91 -8.2 17.2 0
06:11 1028 30.36 857 25.31 -7 19.4 91 -8.2 17.2 0
06:12 1027 30.33 857 25.31 -7 19.5 91 -8.2 17.3 0
06:13 1027 30.33 857 25.31 -6.9 19.5 91 -8.1 17.4 0
06:14 1027 30.33 857 25.31 -6.9 19.7 91 -8.1 17.4 0
06:15 1027 30.33 857 25.31 -6.7 19.9 91 -7.9 17.7 0
06:16 1027 30.33 857 25.31 -6.6 20.2 91 -7.8 17.9 0
06:17 1027 30.33 857 25.31 -6.4 20.4 90 -7.8 18 0
06:18 1027 30.33 857 25.31 -6.4 20.6 90 -7.7 18.1 0
06:19 1028 30.36 857 25.31 -6.3 20.7 90 -7.7 18.1 0
06:20 1028 30.36 857 25.31 -6.2 20.8 90 -7.7 18.2 0
06:21 1028 30.36 857 25.31 -6.2 20.9 89 -7.7 18.2 0
06:22 1027 30.33 857 25.31 -6.2 20.8 89 -7.7 18.1 0
06:23 1028 30.36 857 25.31 -6.2 20.9 89 -7.7 18.1 0
06:24 1027 30.33 857 25.31 -6.2 20.9 89 -7.7 18.1 0
06:25 1027 30.33 857 25.31 -6.2 20.8 88 -7.8 17.9 0
06:26 1028 30.36 857 25.31 -6.3 20.7 88 -7.9 17.7 0
06:27 1028 30.36 857 25.31 -6.4 20.5 89 -7.9 17.7 0
06:28 1028 30.36 857 25.31 -6.4 20.5 89 -7.9 17.7 0
06:29 1028 30.36 857 25.31 -6.4 20.5 89 -8 17.7 0
06:30 1028 30.36 857 25.31 -6.4 20.5 89 -7.9 17.8 0
06:31 1028 30.36 857 25.31 -6.3 20.6 89 -7.9 17.9 0
06:32 1028 30.36 857 25.31 -6.3 20.7 90 -7.7 18.1 0
06:33 1028 30.36 857 25.31 -6.2 20.9 89 -7.6 18.3 0
06:34 1028 30.36 857 25.31 -5.9 21.3 88 -7.6 18.3 0
06:35 1028 30.36 857 25.31 -5.9 21.4 88 -7.6 18.3 0
06:36 1028 30.36 857 25.31 -5.9 21.5 88 -7.6 18.4 0
06:37 1028 30.36 857 25.31 -5.8 21.5 87 -7.6 18.3 0
06:38 1028 30.36 857 25.31 -5.7 21.7 87 -7.5 18.5 0
06:39 1028 30.36 857 25.31 -5.7 21.8 87 -7.5 18.5 0
06:40 1027 30.33 857 25.31 -5.6 21.9 87 -7.5 18.6 0
06:41 1027 30.33 857 25.31 -5.5 22.2 87 -7.4 18.7 0
06:42 1027 30.33 857 25.31 -5.3 22.4 85 -7.5 18.6 0
06:43 1027 30.33 857 25.31 -5.3 22.4 86 -7.3 18.8 0
06:44 1027 30.33 857 25.31 -5.3 22.5 86 -7.3 18.9 0
06:45 1027 30.33 857 25.31 -5.3 22.5 86 -7.2 19 0
06:46 1028 30.36 857 25.31 -5.3 22.4 86 -7.3 18.9 0
06:47 1028 30.36 857 25.31 -5.3 22.4 86 -7.4 18.7 0
06:48 1028 30.36 857 25.31 -5.2 22.6 86 -7.3 18.9 0
06:49 1028 30.36 857 25.31 -5.2 22.7 85 -7.2 19 0
06:50 1028 30.36 857 25.31 -5 23 85 -7.1 19.1 0
06:51 1028 30.36 857 25.31 -5 23.1 84 -7.2 19.1 0
06:52 1028 30.36 857 25.31 -4.9 23.1 85 -7.1 19.3 0
06:53 1028 30.36 857 25.31 -4.9 23.3 85 -7 19.4 0
06:54 1028 30.36 857 25.31 -4.8 23.4 84 -7 19.4 0
06:55 1028 30.36 857 25.31 -4.7 23.5 84 -7 19.4 0
06:56 1028 30.36 857 25.31 -4.7 23.5 84 -7 19.3 0
06:57 1028 30.36 857 25.31 -4.6 23.6 83 -7 19.3 0
06:58 1028 30.36 857 25.31 -4.7 23.5 84 -7.1 19.2 0
06:59 1028 30.36 857 25.31 -4.7 23.5 84 -7 19.4 0
07:00 1028 30.36 857 25.31 -4.6 23.7 84 -6.9 19.6 0
07:01 1028 30.36 857 25.31 -4.5 23.9 83 -6.9 19.6 0
07:02 1028 30.36 857 25.31 -4.5 23.9 83 -6.9 19.6 0
07:03 1028 30.36 857 25.31 -4.5 23.9 83 -6.9 19.6 0
07:04 1028 30.36 857 25.31 -4.5 23.9 84 -6.9 19.6 0
07:05 1028 30.36 857 25.31 -4.5 23.9 84 -6.9 19.6 0
07:06 1028 30.36 857 25.31 -4.5 23.9 83 -6.9 19.6 0
07:07 1028 30.36 857 25.31 -4.5 23.9 84 -6.9 19.6 0
07:08 1028 30.36 857 25.31 -4.6 23.7 84 -7 19.4 0
07:09 1028 30.36 857 25.31 -4.7 23.6 84 -7 19.5 0
07:10 1028 30.36 857 25.31 -4.7 23.5 85 -7 19.5 0
07:11 1028 30.36 857 25.31 -4.8 23.4 84 -7 19.4 0
07:12 1028 30.36 857 25.31 -4.8 23.4 85 -7 19.5 0
07:13 1028 30.36 857 25.31 -4.8 23.3 85 -7 19.5 0
07:14 1028 30.36 857 25.31 -4.8 23.3 85 -7 19.4 0
07:15 1028 30.36 857 25.31 -4.9 23.3 86 -6.9 19.7 0
07:16 1028 30.36 857 25.31 -4.8 23.3 85 -6.9 19.6 0
07:17 1028 30.36 857 25.31 -4.8 23.4 85 -6.9 19.6 0
07:18 1028 30.36 857 25.31 -4.7 23.5 85 -6.9 19.7 0
07:19 1028 30.36 857 25.31 -4.7 23.5 85 -6.8 19.7 0
07:20 1028 30.36 857 25.31 -4.7 23.5 85 -6.8 19.7 0
07:21 1028 30.36 857 25.31 -4.8 23.4 85 -6.9 19.6 0
07:22 1028 30.36 857 25.31 -4.8 23.4 85 -6.9 19.6 0
07:23 1028 30.36 857 25.31 -4.8 23.4 86 -6.9 19.6 0
07:24 1028 30.36 857 25.31 -4.7 23.5 85 -6.8 19.7 0
07:25 1028 30.36 857 25.31 -4.6 23.8 84 -6.8 19.7 0
07:26 1028 30.36 857 25.31 -4.4 24.1 83 -6.8 19.8 0
07:27 1028 30.36 857 25.31 -4.4 24.1 83 -6.8 19.7 0
07:28 1028 30.36 857 25.31 -4.5 24 83 -6.9 19.5 0
07:29 1028 30.36 857 25.31 -4.5 23.9 83 -7 19.4 0
07:30 1028 30.36 857 25.31 -4.6 23.7 84 -7 19.4 0
07:31 1028 30.36 857 25.31 -4.6 23.8 83 -7 19.5 0
07:32 1028 30.36 857 25.31 -4.5 23.9 83 -7 19.5 0
07:33 1028 30.36 857 25.31 -4.5 23.9 83 -7 19.4 0
07:34 1028 30.36 857 25.31 -4.6 23.8 83 -7 19.3 0
07:35 1028 30.36 857 25.31 -4.6 23.7 83 -7 19.4 0
07:36 1028 30.36 857 25.31 -4.5 24 83 -7 19.4 0
07:37 1028 30.36 857 25.31 -4.5 23.9 82 -7.1 19.3 0
07:38 1028 30.36 857 25.31 -4.5 23.9 83 -7 19.4 0
07:39 1028 30.36 857 25.31 -4.6 23.8 82 -7.2 19.1 0
07:40 1028 30.36 857 25.31 -4.7 23.6 83 -7.1 19.2 0
07:41 1028 30.36 857 25.31 -4.8 23.4 83 -7.2 19 0
07:42 1028 30.36 857 25.31 -4.9 23.2 84 -7.2 19 0
07:43 1028 30.36 857 25.31 -4.9 23.1 85 -7.1 19.2 0
07:44 1028 30.36 857 25.31 -4.9 23.2 85 -7.1 19.3 0
07:45 1028 30.36 857 25.31 -4.9 23.1 85 -7.1 19.2 0
07:46 1028 30.36 857 25.31 -5 23.1 84 -7.2 19 0
07:47 1028 30.36 857 25.31 -5 23 85 -7.2 19 0
07:48 1028 30.36 857 25.31 -5.1 22.8 85 -7.2 19 0
07:49 1028 30.36 857 25.31 -5.2 22.6 86 -7.3 18.9 0
07:50 1028 30.36 857 25.31 -5.3 22.4 86 -7.4 18.8 0
07:51 1028 30.36 857 25.31 -5.4 22.2 87 -7.3 18.8 0
07:52 1028 30.36 857 25.31 -5.5 22.2 87 -7.3 18.9 0
07:53 1028 30.36 857 25.31 -5.4 22.4 86 -7.3 18.9 0
07:54 1028 30.36 857 25.31 -5.4 22.3 86 -7.3 18.8 0
07:55 1028 30.36 857 25.31 -5.4 22.3 86 -7.4 18.8 0
07:56 1028 30.36 857 25.31 -5.5 22.1 87 -7.4 18.7 0
07:57 1028 30.36 857 25.31 -5.6 21.9 87 -7.4 18.6 0
07:58 1028 30.36 857 25.31 -5.7 21.7 88 -7.5 18.6 0
07:59 1028 30.36 857 25.31 -5.8 21.6 88 -7.4 18.7 0
08:00 1028 30.36 857 25.31 -5.8 21.5 89 -7.4 18.6 0
08:01 1028 30.36 857 25.31 -5.9 21.5 89 -7.4 18.7 0
08:02 1028 30.36 857 25.31 -5.8 21.6 89 -7.3 18.9 0
08:03 1028 30.36 857 25.31 -5.7 21.8 89 -7.3 18.9 0
08:04 1028 30.36 857 25.31 -5.5 22.1 88 -7.2 19 0
08:05 1028 30.36 857 25.31 -5.4 22.3 87 -7.2 19.1 0
08:06 1028 30.36 857 25.31 -5.4 22.4 87 -7.2 19 0
08:07 1028 30.36 857 25.31 -5.3 22.5 86 -7.2 19.1 0
08:08 1028 30.36 857 25.31 -5.2 22.7 86 -7.1 19.1 0
08:09 1028 30.36 857 25.31 -5.1 22.9 86 -7.1 19.2 0
08:10 1028 30.36 857 25.31 -5 23 86 -7.1 19.3 0
08:11 1028 30.36 857 25.31 -5 23 85 -7.1 19.3 0
08:12 1028 30.36 857 25.31 -4.9 23.1 85 -7 19.3 0
08:13 1028 30.36 857 25.31 -4.9 23.3 85 -7 19.4 0
08:14 1028 30.36 857 25.31 -4.8 23.4 85 -7 19.4 0
08:15 1028 30.36 857 25.31 -4.6 23.6 84 -7 19.5 0
08:16 1028 30.36 857 25.31 -4.5 24 84 -6.8 19.7 0
08:17 1028 30.36 857 25.31 -4.4 24.1 84 -6.8 19.8 0
08:18 1028 30.36 857 25.31 -4.4 24.1 84 -6.8 19.8 0
08:19 1028 30.36 857 25.31 -4.4 24.1 84 -6.7 19.9 0
08:20 1028 30.36 857 25.31 -4.4 24.2 83 -6.8 19.8 0
08:21 1028 30.36 857 25.31 -4.3 24.2 83 -6.8 19.8 0
08:22 1028 30.36 857 25.31 -4.3 24.2 83 -6.8 19.8 0
08:23 1028 30.36 857 25.31 -4.3 24.3 84 -6.7 20 0
08:24 1028 30.36 857 25.31 -4.3 24.2 84 -6.7 20 0
08:25 1028 30.36 857 25.31 -4.3 24.3 84 -6.6 20.1 0
08:26 1028 30.36 857 25.31 -4.2 24.4 83 -6.6 20.1 0
08:27 1028 30.36 857 25.31 -4.2 24.4 83 -6.6 20.1 0
08:28 1028 30.36 857 25.31 -4.2 24.5 84 -6.6 20.2 0
08:29 1028 30.36 857 25.31 -4.2 24.4 84 -6.5 20.2 0
08:30 1028 30.36 857 25.31 -4.3 24.3 84 -6.5 20.2 0
08:31 1028 30.36 857 25.31 -4.3 24.2 85 -6.6 20.2 0
08:32 1028 30.36 858 25.34 -4.4 24.1 85 -6.6 20.2 0
08:33 1028 30.36 858 25.34 -4.4 24.1 85 -6.6 20.2 0
08:34 1028 30.36 858 25.34 -4.4 24.1 85 -6.5 20.3 0
08:35 1028 30.36 858 25.34 -4.3 24.2 85 -6.5 20.3 0
08:36 1028 30.36 858 25.34 -4.3 24.3 85 -6.5 20.4 0
08:37 1028 30.36 858 25.34 -4.2 24.4 84 -6.5 20.4 0
08:38 1028 30.36 858 25.34 -4.1 24.6 85 -6.4 20.5 0
08:39 1028 30.36 858 25.34 -4.1 24.6 85 -6.3 20.6 0
08:40 1028 30.36 858 25.34 -4.1 24.6 85 -6.3 20.7 0
08:41 1028 30.36 858 25.34 -4.1 24.6 85 -6.2 20.8 0
08:42 1028 30.36 858 25.34 -4.1 24.6 85 -6.2 20.8 0
08:43 1028 30.36 858 25.34 -4.1 24.6 85 -6.2 20.8 0
08:44 1028 30.36 858 25.34 -4.1 24.6 86 -6.1 21 0
08:45 1028 30.36 858 25.34 -4.1 24.6 86 -6 21.1 0
08:46 1028 30.36 858 25.34 -4.1 24.7 86 -6.1 21.1 0
08:47 1028 30.36 858 25.34 -4 24.7 86 -6.1 21 0
08:48 1028 30.36 858 25.34 -4 24.9 85 -6.1 21.1 0
08:49 1029 30.39 858 25.34 -3.9 25 85 -6 21.1 0
08:50 1029 30.39 858 25.34 -3.8 25.2 85 -6 21.2 0
08:51 1029 30.39 858 25.34 -3.7 25.3 85 -5.9 21.4 0
08:52 1029 30.39 858 25.34 -3.7 25.4 85 -5.9 21.5 0
08:53 1029 30.39 858 25.34 -3.6 25.6 85 -5.8 21.6 0
08:54 1029 30.39 858 25.34 -3.5 25.8 84 -5.7 21.7 0
08:55 1029 30.39 858 25.34 -3.4 25.9 85 -5.6 21.9 0
08:56 1029 30.39 858 25.34 -3.3 26.1 84 -5.6 21.9 0
08:57 1029 30.39 858 25.34 -3.2 26.3 84 -5.5 22.1 0
08:58 1029 30.39 858 25.34 -3.1 26.4 84 -5.5 22.1 0
08:59 1029 30.39 858 25.34 -2.9 26.7 83 -5.4 22.2 0
09:00 1029 30.39 858 25.34 -2.8 26.9 82 -5.4 22.2 0
09:01 1029 30.39 858 25.34 -2.7 27.1 83 -5.3 22.5 0
09:02 1029 30.39 858 25.34 -2.6 27.3 83 -5.2 22.7 0
09:03 1029 30.39 858 25.34 -2.5 27.4 82 -5.2 22.6 0
09:04 1029 30.39 858 25.34 -2.4 27.7 82 -5.1 22.8 0
09:05 1029 30.39 858 25.34 -2.3 27.9 82 -5 23 0
09:06 1029 30.39 858 25.34 -2.2 28 81 -5 23.1 0
09:07 1029 30.39 858 25.34 -2.1 28.2 82 -4.8 23.3 0
09:08 1029 30.39 858 25.34 -2 28.3 82 -4.7 23.5 0
09:09 1029 30.39 858 25.34 -2 28.4 80 -5 23 0
09:10 1029 30.39 858 25.34 -2 28.4 79 -5.1 22.8 0
09:11 1029 30.39 858 25.34 -1.9 28.6 79 -5.1 22.9 0
09:12 1029 30.39 858 25.34 -1.9 28.5 79 -5.1 22.8 0
09:13 1029 30.39 858 25.34 -1.9 28.6 80 -4.9 23.2 0
09:14 1029 30.39 858 25.34 -1.9 28.6 80 -4.9 23.2 0
09:15 1029 30.39 858 25.34 -1.9 28.6 79 -5 23 0
09:16 1029 30.39 858 25.34 -1.9 28.6 80 -4.9 23.1 0
09:17 1029 30.39 858 25.34 -1.9 28.6 80 -4.9 23.2 0
09:18 1029 30.39 858 25.34 -1.8 28.7 80 -4.8 23.4 0
09:19 1029 30.39 858 25.34 -1.8 28.7 81 -4.7 23.5 0
09:20 1029 30.39 858 25.34 -1.7 28.9 81 -4.5 23.8 0
09:21 1029 30.39 858 25.34 -1.7 28.9 81 -4.5 23.9 0
09:22 1029 30.39 858 25.34 -1.7 29 80 -4.7 23.5 0
09:23 1029 30.39 858 25.34 -1.6 29.1 80 -4.6 23.8 0
09:24 1029 30.39 858 25.34 -1.6 29.2 79 -4.7 23.5 0
09:25 1029 30.39 858 25.34 -1.5 29.3 80 -4.5 23.8 0
09:26 1029 30.39 858 25.34 -1.5 29.2 80 -4.5 23.9 0
09:27 1029 30.39 858 25.34 -1.5 29.3 80 -4.5 23.9 0
09:28 1029 30.39 858 25.34 -1.5 29.3 79 -4.6 23.6 0
09:29 1029 30.39 858 25.34 -1.5 29.3 80 -4.5 23.9 0
09:30 1029 30.39 858 25.34 -1.4 29.4 80 -4.5 23.9 0
09:31 1029 30.39 858 25.34 -1.4 29.5 80 -4.4 24.2 0
09:32 1029 30.39 858 25.34 -1.3 29.6 80 -4.4 24 0
09:33 1029 30.39 858 25.34 -1.3 29.7 81 -4.2 24.5 0
09:34 1029 30.39 858 25.34 -1.3 29.7 80 -4.2 24.4 0
09:35 1029 30.39 858 25.34 -1.2 29.8 80 -4.2 24.5 0
09:36 1029 30.39 858 25.34 -1.2 29.9 81 -4 24.8 0
09:37 1029 30.39 858 25.34 -1.1 30.1 81 -4 24.8 0
09:38 1029 30.39 858 25.34 -0.9 30.3 81 -3.8 25.1 0
09:39 1029 30.39 858 25.34 -0.8 30.5 80 -3.8 25.2 0
09:40 1029 30.39 858 25.34 -0.7 30.8 78 -4 24.8 0
09:41 1029 30.39 858 25.34 -0.6 30.9 78 -3.9 24.9 0
09:42 1029 30.39 858 25.34 -0.5 31.1 77 -4.1 24.6 0
09:43 1028 30.36 858 25.34 -0.5 31.1 76 -4.1 24.5 0
09:44 1028 30.36 858 25.34 -0.4 31.2 77 -4 24.9 0
09:45 1028 30.36 858 25.34 -0.4 31.3 75 -4.2 24.4 0
09:46 1028 30.36 858 25.34 -0.3 31.4 77 -3.8 25.1 0
09:47 1029 30.39 858 25.34 -0.2 31.7 78 -3.6 25.5 0
09:48 1029 30.39 858 25.34 -0 31.9 74 -4.1 24.6 0
09:49 1029 30.39 858 25.34 0.1 32.2 77 -3.5 25.7 0
09:50 1029 30.39 858 25.34 0.3 32.5 74 -3.8 25.2 0
09:51 1029 30.39 858 25.34 0.5 32.8 74 -3.7 25.3 0
09:52 1029 30.39 858 25.34 0.6 33 72 -4 24.8 0
09:53 1029 30.39 858 25.34 0.7 33.3 69 -4.4 24.1 0
09:54 1029 30.39 858 25.34 0.9 33.6 69 -4.2 24.5 0
09:55 1029 30.39 858 25.34 1.1 34 68 -4.2 24.5 0
09:56 1029 30.39 858 25.34 1.2 34.1 68 -4.1 24.5 0
09:57 1029 30.39 858 25.34 1.2 34.1 69 -3.8 25.2 0
09:58 1029 30.39 858 25.34 1.2 34.2 69 -3.9 25 0
09:59 1029 30.39 858 25.34 1.2 34.2 69 -3.8 25.2 0
10:00 1029 30.39 858 25.34 1.3 34.3 65 -4.6 23.8 0
10:01 1029 30.39 858 25.34 1.2 34.2 67 -4.3 24.2 0
10:02 1029 30.39 858 25.34 1.2 34.2 70 -3.7 25.4 0
10:03 1029 30.39 858 25.34 1.3 34.3 71 -3.5 25.8 0
10:04 1029 30.39 858 25.34 1.4 34.5 66 -4.2 24.4 0
10:05 1029 30.39 858 25.34 1.4 34.4 68 -3.9 25.1 0
10:06 1029 30.39 858 25.34 1.3 34.4 65 -4.4 24 0
10:07 1029 30.39 858 25.34 1.3 34.4 68 -3.9 25 0
10:08 1029 30.39 858 25.34 1.3 34.3 64 -4.8 23.4 0
10:09 1029 30.39 858 25.34 1.3 34.4 65 -4.5 23.9 0
10:10 1029 30.39 858 25.34 1.3 34.4 67 -4.1 24.6 0
10:11 1029 30.39 858 25.34 1.3 34.3 67 -4.1 24.6 0
10:12 1029 30.39 858 25.34 1.3 34.3 67 -4.2 24.5 0
10:13 1029 30.39 858 25.34 1.3 34.4 68 -4 24.8 0
10:14 1029 30.39 858 25.34 1.4 34.6 65 -4.5 23.8 0
10:15 1029 30.39 858 25.34 1.5 34.7 66 -4.1 24.5 0
10:16 1029 30.39 858 25.34 1.6 34.8 67 -3.9 24.9 0
10:17 1029 30.39 858 25.34 1.7 35 64 -4.4 24.1 0
10:18 1029 30.39 858 25.34 1.8 35.2 64 -4.4 24.1 0
10:19 1029 30.39 858 25.34 1.9 35.4 66 -3.8 25.1 0
10:20 1029 30.39 858 25.34 2 35.5 64 -4.2 24.5 0
10:21 1029 30.39 858 25.34 2.1 35.8 64 -4 24.7 0
10:22 1029 30.39 858 25.34 2.3 36.2 68 -3 26.7 0
10:23 1029 30.39 858 25.34 2.7 36.8 57 -5.1 22.8 0
10:24 1029 30.39 858 25.34 2.7 36.9 59 -4.5 23.9 0
10:25 1029 30.39 858 25.34 2.8 37 56 -5 22.9 0
10:26 1029 30.39 858 25.34 2.7 36.8 52 -6.2 20.9 0
10:27 1029 30.39 858 25.34 2.7 36.8 51 -6.4 20.5 0
10:28 1029 30.39 858 25.34 2.7 36.9 53 -5.8 21.6 0
10:29 1029 30.39 858 25.34 2.9 37.2 54 -5.5 22 0
10:30 1029 30.39 858 25.34 3 37.4 51 -6.3 20.7 0
10:31 1029 30.39 858 25.34 3 37.4 54 -5.4 22.3 0
10:32 1029 30.39 858 25.34 3 37.3 56 -4.9 23.1 0
10:33 1029 30.39 858 25.34 3 37.4 54 -5.5 22.2 0
10:34 1029 30.39 858 25.34 3 37.4 52 -6 21.2 0
10:35 1029 30.39 858 25.34 3 37.4 53 -5.6 22 0
10:36 1029 30.39 858 25.34 2.9 37.1 58 -4.7 23.5 0
10:37 1029 30.39 858 25.34 2.8 37.1 60 -4.2 24.4 0
10:38 1029 30.39 858 25.34 2.7 36.9 55 -5.4 22.3 0
10:39 1029 30.39 858 25.34 2.7 36.9 54 -5.6 21.9 0
10:40 1029 30.39 858 25.34 2.7 36.8 53 -5.9 21.4 0
10:41 1029 30.39 858 25.34 2.6 36.6 58 -4.8 23.3 0
10:42 1029 30.39 858 25.34 2.6 36.7 55 -5.5 22 0
10:43 1029 30.39 858 25.34 2.6 36.7 55 -5.6 22 0
10:44 1029 30.39 858 25.34 2.7 36.8 58 -4.7 23.5 0
10:45 1029 30.39 858 25.34 2.8 37 55 -5.3 22.4 0
10:46 1029 30.39 858 25.34 2.9 37.2 54 -5.6 21.8 0
10:47 1029 30.39 858 25.34 2.8 37.1 52 -6.1 21 0
10:48 1029 30.39 858 25.34 2.8 37 52 -6 21.2 0
10:49 1029 30.39 858 25.34 2.8 37 51 -6.3 20.7 0
10:50 1029 30.39 858 25.34 2.8 37 52 -6.1 21 0
10:51 1029 30.39 858 25.34 2.7 36.9 51 -6.5 20.4 0
10:52 1029 30.39 858 25.34 2.7 36.9 55 -5.4 22.3 0
10:53 1029 30.39 858 25.34 2.8 37 50 -6.6 20.2 0
10:54 1029 30.39 858 25.34 2.9 37.2 50 -6.6 20.2 0
10:55 1029 30.39 858 25.34 2.9 37.3 49 -6.6 20 0
10:56 1029 30.39 858 25.34 3 37.4 50 -6.4 20.5 0
10:57 1029 30.39 858 25.34 3.1 37.6 49 -6.5 20.2 0
10:58 1029 30.39 858 25.34 3.3 37.9 51 -5.9 21.4 0
10:59 1029 30.39 858 25.34 3.3 38 50 -6.2 20.8 0
11:00 1029 30.39 858 25.34 3.3 38 50 -6.1 21 0
11:01 1029 30.39 858 25.34 3.3 38 52 -5.7 21.8 0
11:02 1029 30.39 858 25.34 3.4 38.1 49 -6.2 20.8 0
11:03 1029 30.39 858 25.34 3.3 38 54 -5.2 22.6 0
11:04 1029 30.39 858 25.34 3.1 37.6 54 -5.3 22.4 0
11:05 1029 30.39 858 25.34 3 37.5 54 -5.5 22.1 0
11:06 1029 30.39 858 25.34 3 37.5 52 -5.8 21.6 0
11:07 1029 30.39 858 25.34 3.1 37.5 52 -5.8 21.5 0
11:08 1029 30.39 858 25.34 3 37.5 57 -4.7 23.6 0
11:09 1029 30.39 858 25.34 3.1 37.6 53 -5.6 21.9 0
11:10 1029 30.39 858 25.34 3.1 37.7 58 -4.4 24.1 0
11:11 1029 30.39 858 25.34 3.2 37.7 55 -5 23 0
11:12 1029 30.39 858 25.34 3.1 37.6 58 -4.4 24.1 0
11:13 1029 30.39 858 25.34 3.1 37.5 61 -3.8 25.1 0
11:14 1029 30.39 858 25.34 3.1 37.5 59 -4.2 24.5 0
11:15 1029 30.39 858 25.34 3.1 37.5 53 -5.5 22.1 0
11:16 1029 30.39 858 25.34 3 37.4 56 -4.8 23.3 0
11:17 1029 30.39 858 25.34 3 37.4 55 -5.1 22.8 0
11:18 1029 30.39 858 25.34 2.9 37.3 55 -5.3 22.5 0
11:19 1029 30.39 858 25.34 2.9 37.1 59 -4.4 24 0
11:20 1029 30.39 858 25.34 2.9 37.2 59 -4.2 24.4 0
11:21 1029 30.39 858 25.34 2.9 37.2 57 -4.8 23.3 0
11:22 1029 30.39 858 25.34 2.8 37.1 61 -4 24.8 0
11:23 1029 30.39 858 25.34 2.9 37.2 60 -4.2 24.5 0
11:24 1029 30.39 858 25.34 2.9 37.2 56 -5 23 0
11:25 1029 30.39 858 25.34 2.9 37.2 58 -4.5 23.8 0
11:26 1029 30.39 858 25.34 2.9 37.3 58 -4.4 24 0
11:27 1029 30.39 858 25.34 3 37.4 60 -4 24.8 0
11:28 1029 30.39 858 25.34 3 37.4 58 -4.4 24.1 0
11:29 1029 30.39 858 25.34 3 37.4 56 -4.9 23.2 0
11:30 1029 30.39 858 25.34 3 37.5 56 -4.8 23.3 0
11:31 1029 30.39 858 25.34 3.1 37.6 57 -4.6 23.8 0
11:32 1029 30.39 858 25.34 3.2 37.8 55 -5 23 0
11:33 1029 30.39 858 25.34 3.4 38 56 -4.6 23.7 0
11:34 1029 30.39 858 25.34 3.5 38.3 53 -5.2 22.6 0
11:35 1029 30.39 858 25.34 3.6 38.5 48 -6.3 20.6 0
11:36 1029 30.39 858 25.34 3.6 38.5 47 -6.7 20 0
11:37 1029 30.39 858 25.34 3.6 38.4 49 -6.2 20.8 0
11:38 1029 30.39 858 25.34 3.5 38.4 52 -5.4 22.3 0
11:39 1029 30.39 858 25.34 3.6 38.4 52 -5.5 22.2 0
11:40 1029 30.39 858 25.34 3.6 38.5 50 -5.8 21.6 0
11:41 1029 30.39 858 25.34 3.7 38.7 49 -6 21.3 0
11:42 1029 30.39 858 25.34 3.7 38.6 47 -6.5 20.2 0
11:43 1029 30.39 858 25.34 3.6 38.5 49 -6.2 20.8 0
11:44 1029 30.39 858 25.34 3.7 38.6 50 -5.8 21.5 0
11:45 1029 30.39 858 25.34 3.7 38.7 53 -5 23 0
11:46 1029 30.39 858 25.34 3.8 38.9 50 -5.6 21.9 0
11:47 1029 30.39 858 25.34 3.8 38.9 48 -6.1 21 0
11:48 1029 30.39 858 25.34 3.8 38.9 47 -6.4 20.5 0
11:49 1029 30.39 858 25.34 3.8 38.9 50 -5.6 21.9 0
11:50 1029 30.39 858 25.34 4 39.1 47 -6.4 20.4 0
11:51 1029 30.39 858 25.34 4 39.1 48 -6 21.1 0
11:52 1029 30.39 858 25.34 4 39.1 49 -5.7 21.8 0
11:53 1029 30.39 858 25.34 4 39.2 46 -6.5 20.3 0
11:54 1029 30.39 858 25.34 4.1 39.3 47 -6.4 20.5 0
11:55 1029 30.39 858 25.34 4.1 39.4 49 -5.8 21.6 0
11:56 1029 30.39 858 25.34 4.2 39.5 51 -5 23 0
11:57 1029 30.39 858 25.34 4.3 39.7 49 -5.4 22.3 0
11:58 1029 30.39 858 25.34 4.4 39.9 48 -5.7 21.8 0
11:59 1029 30.39 858 25.34 4.4 39.9 50 -5.2 22.6 0
12:00 1029 30.39 858 25.34 4.4 39.9 46 -6.1 21 0
12:01 1029 30.39 858 25.34 4.3 39.8 48 -5.8 21.5 0
12:02 1029 30.39 858 25.34 4.3 39.7 47 -6.2 20.9 0
12:03 1029 30.39 858 25.34 4.2 39.6 48 -5.9 21.4 0
12:04 1029 30.39 858 25.34 4.2 39.6 48 -5.8 21.6 0
12:05 1029 30.39 858 25.34 4.2 39.5 48 -6 21.3 0
12:06 1029 30.39 858 25.34 4 39.3 51 -5.1 22.8 0
12:07 1029 30.39 858 25.34 4.1 39.4 48 -6 21.2 0
12:08 1029 30.39 858 25.34 4.2 39.6 51 -5.1 22.8 0
12:09 1029 30.39 858 25.34 4.4 39.9 47 -5.9 21.3 0
12:10 1029 30.39 858 25.34 4.5 40.1 48 -5.5 22 0
12:11 1029 30.39 858 25.34 4.5 40.1 50 -5.1 22.8 0
12:12 1029 30.39 858 25.34 4.5 40.2 47 -5.9 21.3 0
12:13 1029 30.39 858 25.34 4.6 40.2 49 -5.1 22.8 0
12:14 1029 30.39 858 25.34 4.5 40.2 47 -5.9 21.4 0
12:15 1029 30.39 858 25.34 4.4 40 50 -5 23 0
12:16 1029 30.39 858 25.34 4.5 40.1 49 -5.3 22.5 0
12:17 1029 30.39 858 25.34 4.4 40 49 -5.2 22.6 0
12:18 1029 30.39 858 25.34 4.5 40 51 -4.8 23.4 0
12:19 1029 30.39 858 25.34 4.5 40.2 48 -5.5 22.1 0
12:20 1029 30.39 858 25.34 4.6 40.3 48 -5.5 22 0
12:21 1029 30.39 858 25.34 4.6 40.3 47 -5.8 21.6 0
12:22 1029 30.39 858 25.34 4.5 40.1 51 -4.7 23.6 0
12:23 1029 30.39 858 25.34 4.5 40.1 52 -4.6 23.7 0
12:24 1029 30.39 858 25.34 4.6 40.3 49 -5.3 22.5 0
12:25 1029 30.39 858 25.34 4.7 40.5 48 -5.5 22.1 0
12:26 1029 30.39 858 25.34 4.7 40.5 47 -5.6 21.9 0
12:27 1029 30.39 858 25.34 4.6 40.3 50 -4.9 23.2 0
12:28 1029 30.39 858 25.34 4.7 40.5 46 -5.8 21.6 0
12:29 1029 30.39 858 25.34 4.8 40.7 49 -5.1 22.8 0
12:30 1029 30.39 858 25.34 4.9 40.8 48 -5.2 22.6 0
12:31 1029 30.39 858 25.34 5.1 41.1 50 -4.4 24.1 0
12:32 1029 30.39 858 25.34 5.2 41.4 49 -4.5 23.9 0
12:33 1029 30.39 858 25.34 5.2 41.4 45 -5.6 21.9 0
12:34 1029 30.39 858 25.34 5.1 41.2 48 -4.9 23.1 0
12:35 1029 30.39 858 25.34 5.1 41.1 49 -4.7 23.5 0
12:36 1029 30.39 858 25.34 5.1 41.2 51 -4.3 24.3 0
12:37 1029 30.39 858 25.34 5.1 41.3 48 -5 23 0
12:38 1029 30.39 858 25.34 5.1 41.2 51 -4.3 24.2 0
12:39 1029 30.39 858 25.34 5.1 41.1 52 -4 24.7 0
12:40 1029 30.39 858 25.34 5.1 41.2 47 -5.2 22.6 0
12:41 1029 30.39 858 25.34 5.1 41.2 47 -5.2 22.6 0
12:42 1029 30.39 858 25.34 5 41.1 47 -5.3 22.5 0
12:43 1029 30.39 858 25.34 5 41.1 52 -4 24.8 0
12:44 1029 30.39 858 25.34 5.1 41.2 53 -3.8 25.2 0
12:45 1029 30.39 858 25.34 5.2 41.4 48 -4.9 23.2 0
12:46 1028 30.36 858 25.34 5.2 41.4 47 -5.3 22.5 0
12:47 1028 30.36 858 25.34 5.1 41.2 47 -5.2 22.6 0
12:48 1028 30.36 858 25.34 5.1 41.1 48 -5.1 22.8 0
12:49 1028 30.36 858 25.34 5 41 50 -4.5 23.9 0
12:50 1028 30.36 858 25.34 5 40.9 49 -4.9 23.2 0
12:51 1028 30.36 858 25.34 5 40.9 51 -4.3 24.2 0
12:52 1028 30.36 858 25.34 5 41 49 -4.9 23.1 0
12:53 1028 30.36 858 25.34 5 40.9 50 -4.7 23.5 0
12:54 1028 30.36 858 25.34 5 41 47 -5.4 22.3 0
12:55 1028 30.36 858 25.34 5 41.1 51 -4.3 24.3 0
12:56 1028 30.36 858 25.34 5.1 41.3 49 -4.8 23.3 0
12:57 1028 30.36 858 25.34 5.1 41.2 47 -5.3 22.5 0
12:58 1028 30.36 858 25.34 5.1 41.2 53 -3.8 25.1 0
12:59 1028 30.36 858 25.34 5.1 41.1 48 -5.1 22.9 0
13:00 1028 30.36 858 25.34 5 41.1 49 -4.7 23.6 0
13:01 1028 30.36 858 25.34 5.1 41.2 47 -5.2 22.6 0
13:02 1028 30.36 858 25.34 5.1 41.2 51 -4.2 24.5 0
13:03 1028 30.36 858 25.34 5.2 41.3 51 -4.1 24.7 0
13:04 1028 30.36 858 25.34 5.2 41.4 49 -4.7 23.5 0
13:05 1028 30.36 858 25.34 5.2 41.4 49 -4.5 23.8 0
13:06 1028 30.36 858 25.34 5.2 41.4 50 -4.3 24.2 0
13:07 1028 30.36 858 25.34 5.4 41.6 50 -4.3 24.2 0
13:08 1028 30.36 858 25.34 5.4 41.7 50 -4.1 24.7 0
13:09 1028 30.36 858 25.34 5.4 41.7 50 -4.1 24.6 0
13:10 1028 30.36 857 25.31 5.4 41.7 47 -5 23.1 0
13:11 1028 30.36 858 25.34 5.3 41.5 47 -5.1 22.8 0
13:12 1028 30.36 857 25.31 5.2 41.4 50 -4.5 23.9 0
13:13 1028 30.36 858 25.34 5.1 41.2 48 -5 23.1 0
13:14 1028 30.36 858 25.34 5.2 41.3 50 -4.4 24.1 0
13:15 1028 30.36 858 25.34 5.2 41.4 51 -4.2 24.5 0
13:16 1028 30.36 858 25.34 5.2 41.4 52 -4 24.9 0
13:17 1028 30.36 858 25.34 5.2 41.4 47 -5.1 22.9 0
13:18 1028 30.36 858 25.34 5.2 41.3 51 -4.2 24.4 0
13:19 1028 30.36 858 25.34 5.1 41.2 49 -4.9 23.2 0
13:20 1028 30.36 858 25.34 5.2 41.3 52 -4 24.8 0
13:21 1028 30.36 858 25.34 5.2 41.4 48 -5 23 0
13:22 1028 30.36 858 25.34 5.2 41.3 48 -5 22.9 0
13:23 1028 30.36 858 25.34 5.1 41.3 48 -4.9 23.2 0
13:24 1028 30.36 858 25.34 5.1 41.2 48 -4.9 23.1 0
13:25 1028 30.36 858 25.34 5.2 41.4 47 -5.1 22.7 0
13:26 1028 30.36 858 25.34 5.3 41.5 49 -4.7 23.6 0
13:27 1028 30.36 858 25.34 5.4 41.8 48 -4.7 23.6 0
13:28 1028 30.36 858 25.34 5.6 42 50 -4.2 24.5 0
13:29 1028 30.36 858 25.34 5.8 42.4 46 -4.8 23.4 0
13:30 1028 30.36 858 25.34 5.9 42.7 46 -4.8 23.3 0
13:31 1028 30.36 858 25.34 6.1 42.9 48 -4 24.7 0
13:32 1028 30.36 858 25.34 6.2 43.1 44 -5.2 22.7 0
13:33 1028 30.36 858 25.34 6.1 43 46 -4.6 23.8 0
13:34 1028 30.36 858 25.34 6.1 42.9 46 -4.8 23.4 0
13:35 1028 30.36 858 25.34 6.1 42.9 44 -5.4 22.3 0
13:36 1028 30.36 857 25.31 6 42.9 45 -5 22.9 0
13:37 1028 30.36 857 25.31 6.1 42.9 45 -5.1 22.8 0
13:38 1028 30.36 857 25.31 6.1 43 47 -4.3 24.3 0
13:39 1028 30.36 857 25.31 6 42.9 45 -5.1 22.8 0
13:40 1028 30.36 857 25.31 6 42.8 48 -4.3 24.3 0
13:41 1028 30.36 857 25.31 6 42.7 47 -4.6 23.7 0
13:42 1028 30.36 857 25.31 6 42.8 45 -5 23 0
13:43 1028 30.36 857 25.31 6.1 42.9 45 -4.9 23.2 0
13:44 1028 30.36 857 25.31 6.1 43 46 -4.8 23.4 0
13:45 1028 30.36 857 25.31 6.2 43.2 46 -4.6 23.7 0
13:46 1028 30.36 858 25.34 6.3 43.4 48 -3.7 25.3 0
13:47 1028 30.36 858 25.34 6.5 43.8 45 -4.4 24 0
13:48 1028 30.36 857 25.31 6.8 44.2 42 -5.3 22.5 0
13:49 1028 30.36 857 25.31 6.9 44.4 46 -3.9 25 0
13:50 1028 30.36 857 25.31 7.1 44.8 42 -5 23 0
13:51 1028 30.36 857 25.31 7.3 45.2 46 -3.5 25.7 0
13:52 1028 30.36 857 25.31 7.5 45.5 44 -4 24.9 0
13:53 1028 30.36 857 25.31 7.4 45.4 44 -4.1 24.6 0
13:54 1028 30.36 857 25.31 7.3 45.2 47 -3.3 26 0
13:55 1028 30.36 857 25.31 7.5 45.5 41 -4.8 23.3 0
13:56 1028 30.36 857 25.31 7.4 45.3 45 -3.7 25.3 0
13:57 1028 30.36 857 25.31 7.3 45.1 45 -3.7 25.3 0
13:58 1028 30.36 857 25.31 7.1 44.8 45 -3.9 25.1 0
13:59 1028 30.36 857 25.31 7 44.7 45 -4.2 24.5 0
14:00 1028 30.36 857 25.31 7 44.5 46 -4 24.9 0
14:01 1028 30.36 857 25.31 6.9 44.5 44 -4.4 24 0
14:02 1028 30.36 857 25.31 7 44.6 43 -4.6 23.7 0
14:03 1028 30.36 857 25.31 7 44.7 44 -4.5 24 0
14:04 1028 30.36 857 25.31 7.1 44.8 42 -4.9 23.2 0
14:05 1028 30.36 857 25.31 7.1 44.7 45 -3.9 24.9 0
14:06 1028 30.36 857 25.31 7.1 44.8 42 -4.8 23.3 0
14:07 1028 30.36 857 25.31 7 44.6 46 -3.9 25.1 0
14:08 1028 30.36 857 25.31 6.9 44.5 44 -4.4 24.1 0
14:09 1028 30.36 857 25.31 7 44.5 42 -5.1 22.8 0
14:10 1028 30.36 857 25.31 7 44.6 45 -4.1 24.5 0
14:11 1028 30.36 857 25.31 7.1 44.7 44 -4.4 24.1 0
14:12 1028 30.36 857 25.31 7.3 45.1 43 -4.3 24.2 0
14:13 1028 30.36 857 25.31 7.4 45.3 46 -3.5 25.7 0
14:14 1028 30.36 857 25.31 7.4 45.4 42 -4.5 23.8 0
14:15 1028 30.36 857 25.31 7.4 45.3 44 -4.2 24.4 0
14:16 1028 30.36 857 25.31 7.3 45.1 43 -4.3 24.3 0
14:17 1028 30.36 857 25.31 7.3 45.1 40 -5.5 22.2 0
14:18 1028 30.36 857 25.31 7.3 45.1 41 -5.1 22.8 0
14:19 1028 30.36 857 25.31 7.2 45 43 -4.4 24.1 0
14:20 1028 30.36 857 25.31 7.2 45 41 -5.1 22.8 0
14:21 1028 30.36 857 25.31 7.2 45 42 -4.9 23.2 0
14:22 1028 30.36 857 25.31 7.4 45.4 44 -3.9 24.9 0
14:23 1028 30.36 857 25.31 7.6 45.6 43 -4.3 24.3 0
14:24 1028 30.36 857 25.31 7.6 45.8 42 -4.4 24 0
14:25 1028 30.36 857 25.31 7.8 46 45 -3.5 25.7 0
14:26 1028 30.36 857 25.31 7.8 46.1 44 -3.7 25.3 0
14:27 1028 30.36 857 25.31 7.9 46.1 41 -4.5 23.9 0
14:28 1028 30.36 857 25.31 7.8 46.1 40 -5 22.9 0
14:29 1028 30.36 857 25.31 7.7 45.9 44 -3.8 25.2 0
14:30 1027 30.33 857 25.31 7.7 45.8 42 -4.3 24.2 0
14:31 1027 30.33 857 25.31 7.6 45.6 43 -4 24.7 0
14:32 1027 30.33 856 25.28 7.5 45.5 46 -3.4 25.9 0
14:33 1027 30.33 857 25.31 7.5 45.4 47 -3 26.6 0
14:34 1027 30.33 857 25.31 7.4 45.4 40 -5.2 22.6 0
14:35 1027 30.33 857 25.31 7.4 45.2 40 -5.2 22.6 0
14:36 1027 30.33 857 25.31 7.3 45.1 42 -4.6 23.7 0
14:37 1027 30.33 857 25.31 7.3 45.1 41 -5.1 22.7 0
14:38 1027 30.33 857 25.31 7.2 45 41 -5.2 22.6 0
14:39 1027 30.33 857 25.31 7.1 44.8 40 -5.7 21.7 0
14:40 1027 30.33 857 25.31 7.1 44.7 42 -5.1 22.8 0
14:41 1027 30.33 857 25.31 7.1 44.7 41 -5.4 22.3 0
14:42 1027 30.33 857 25.31 7.1 44.8 41 -5.2 22.7 0
14:43 1027 30.33 857 25.31 7.1 44.8 41 -5.1 22.7 0
14:44 1027 30.33 857 25.31 7 44.7 40 -5.8 21.6 0
14:45 1027 30.33 857 25.31 7 44.6 41 -5.4 22.3 0
14:46 1027 30.33 857 25.31 7.1 44.7 42 -5 23 0
14:47 1027 30.33 857 25.31 7.1 44.7 43 -4.5 23.9 0
14:48 1027 30.33 857 25.31 7.1 44.8 40 -5.6 21.8 0
14:49 1027 30.33 857 25.31 7.1 44.8 42 -5 23 0
14:50 1027 30.33 857 25.31 7 44.7 44 -4.3 24.2 0
14:51 1027 30.33 857 25.31 7 44.6 44 -4.3 24.3 0
14:52 1027 30.33 857 25.31 7 44.7 42 -4.9 23.1 0
14:53 1027 30.33 857 25.31 7.1 44.8 41 -5.4 22.3 0
14:54 1027 30.33 857 25.31 7.1 44.8 42 -5 22.9 0
14:55 1027 30.33 857 25.31 7.1 44.7 42 -4.8 23.3 0
14:56 1027 30.33 857 25.31 7.1 44.7 40 -5.6 22 0
14:57 1027 30.33 857 25.31 7.1 44.8 43 -4.7 23.5 0
14:58 1027 30.33 857 25.31 7.1 44.9 44 -4.3 24.2 0
14:59 1027 30.33 857 25.31 7.2 44.9 43 -4.5 23.8 0
15:00 1027 30.33 857 25.31 7.2 44.9 44 -4.2 24.4 0
15:01 1027 30.33 857 25.31 7.2 44.9 41 -5.1 22.8 0
15:02 1027 30.33 857 25.31 7.1 44.8 42 -4.8 23.3 0
15:03 1027 30.33 857 25.31 7.1 44.8 41 -5.2 22.6 0
15:04 1027 30.33 857 25.31 7.1 44.7 45 -4 24.8 0
15:05 1027 30.33 857 25.31 7.1 44.8 41 -5.4 22.3 0
15:06 1027 30.33 857 25.31 7.1 44.7 42 -4.8 23.3 0
15:07 1027 30.33 857 25.31 7 44.7 44 -4.4 24 0
15:08 1027 30.33 856 25.28 7 44.6 42 -4.9 23.2 0
15:09 1027 30.33 856 25.28 7 44.6 42 -5.1 22.8 0
15:10 1027 30.33 856 25.28 6.9 44.5 46 -4 24.8 0
15:11 1027 30.33 857 25.31 6.9 44.5 45 -4.1 24.6 0
15:12 1027 30.33 857 25.31 6.9 44.5 46 -3.8 25.1 0
15:13 1027 30.33 857 25.31 6.9 44.5 46 -4 24.8 0
15:14 1027 30.33 857 25.31 6.9 44.4 43 -4.9 23.1 0
15:15 1027 30.33 857 25.31 6.9 44.4 44 -4.6 23.7 0
15:16 1027 30.33 857 25.31 6.9 44.3 42 -5.1 22.7 0
15:17 1027 30.33 857 25.31 6.8 44.3 44 -4.4 24 0
15:18 1027 30.33 857 25.31 6.8 44.3 44 -4.6 23.7 0
15:19 1027 30.33 857 25.31 6.9 44.4 45 -4.1 24.6 0
15:20 1027 30.33 857 25.31 6.9 44.4 43 -4.9 23.2 0
15:21 1027 30.33 857 25.31 6.9 44.5 45 -4.2 24.4 0
15:22 1027 30.33 857 25.31 6.9 44.4 44 -4.7 23.6 0
15:23 1027 30.33 857 25.31 6.9 44.5 46 -3.9 25 0
15:24 1027 30.33 857 25.31 6.9 44.5 45 -4.1 24.7 0
15:25 1027 30.33 857 25.31 6.9 44.4 43 -5 23.1 0
15:26 1027 30.33 857 25.31 6.9 44.4 44 -4.6 23.7 0
15:27 1027 30.33 857 25.31 6.9 44.5 47 -3.6 25.6 0
15:28 1027 30.33 857 25.31 6.9 44.5 44 -4.4 24 0
15:29 1027 30.33 857 25.31 6.9 44.4 45 -4.2 24.4 0
15:30 1027 30.33 857 25.31 6.8 44.3 47 -3.8 25.2 0
15:31 1027 30.33 857 25.31 6.8 44.3 47 -3.6 25.6 0
15:32 1027 30.33 857 25.31 6.8 44.3 45 -4.4 24.1 0
15:33 1027 30.33 857 25.31 6.8 44.3 46 -3.9 24.9 0
15:34 1027 30.33 857 25.31 6.8 44.2 45 -4.2 24.4 0
15:35 1027 30.33 857 25.31 6.7 44.1 43 -4.8 23.3 0
15:36 1027 30.33 857 25.31 6.7 44.1 46 -4.2 24.4 0
15:37 1027 30.33 857 25.31 6.7 44 47 -3.8 25.1 0
15:38 1028 30.36 857 25.31 6.7 44 50 -3.1 26.4 0
15:39 1028 30.36 857 25.31 6.7 44 48 -3.5 25.7 0
15:40 1028 30.36 857 25.31 6.7 44 46 -4 24.8 0
15:41 1027 30.33 857 25.31 6.7 44 47 -3.8 25.1 0
15:42 1028 30.36 857 25.31 6.6 43.9 47 -4 24.8 0
15:43 1028 30.36 857 25.31 6.6 43.8 51 -2.9 26.7 0
15:44 1027 30.33 857 25.31 6.6 43.9 46 -4.1 24.6 0
15:45 1027 30.33 857 25.31 6.6 43.9 46 -4.3 24.2 0
15:46 1027 30.33 857 25.31 6.6 43.9 45 -4.6 23.7 0
15:47 1028 30.36 857 25.31 6.6 43.9 46 -4.2 24.5 0
15:48 1028 30.36 857 25.31 6.6 43.9 48 -3.6 25.5 0
15:49 1028 30.36 857 25.31 6.6 43.9 47 -3.8 25.1 0
15:50 1028 30.36 857 25.31 6.6 43.9 46 -4 24.8 0
15:51 1028 30.36 857 25.31 6.6 43.9 46 -4.2 24.4 0
15:52 1028 30.36 857 25.31 6.6 43.9 46 -4.3 24.3 0
15:53 1028 30.36 857 25.31 6.6 43.9 47 -3.9 25 0
15:54 1028 30.36 857 25.31 6.6 43.9 45 -4.4 24.1 0
15:55 1028 30.36 857 25.31 6.6 44 48 -3.5 25.7 0
15:56 1028 30.36 857 25.31 6.7 44.1 50 -3 26.5 0
15:57 1028 30.36 857 25.31 6.8 44.2 49 -3.3 26.1 0
15:58 1028 30.36 857 25.31 6.8 44.2 46 -4 24.8 0
15:59 1028 30.36 857 25.31 6.7 44.1 49 -3.2 26.3 0
16:00 1028 30.36 857 25.31 6.7 44.1 50 -2.8 26.9 0
16:01 1028 30.36 857 25.31 6.7 44.1 48 -3.6 25.4 0
16:02 1028 30.36 857 25.31 6.7 44 50 -3 26.6 0
16:03 1028 30.36 857 25.31 6.7 44 48 -3.6 25.5 0
16:04 1028 30.36 857 25.31 6.6 43.9 51 -2.8 27 0
16:05 1028 30.36 857 25.31 6.6 43.9 51 -2.7 27.1 0
16:06 1028 30.36 857 25.31 6.6 43.8 51 -2.9 26.7 0
16:07 1028 30.36 857 25.31 6.5 43.8 53 -2.3 27.8 0
16:08 1028 30.36 857 25.31 6.5 43.7 53 -2.4 27.8 0
16:09 1028 30.36 857 25.31 6.5 43.6 54 -2.2 28 0
16:10 1028 30.36 857 25.31 6.4 43.6 56 -1.7 29 0
16:11 1028 30.36 857 25.31 6.4 43.5 54 -2.2 28.1 0
16:12 1028 30.36 857 25.31 6.3 43.3 53 -2.7 27.2 0
16:13 1028 30.36 857 25.31 6.3 43.3 54 -2.4 27.7 0
16:14 1028 30.36 857 25.31 6.2 43.2 54 -2.3 27.9 0
16:15 1028 30.36 857 25.31 6.2 43.2 57 -1.8 28.8 0
16:16 1028 30.36 857 25.31 6.2 43.2 60 -1.1 30.1 0
16:17 1028 30.36 857 25.31 6.1 43 59 -1.3 29.6 0
16:18 1028 30.36 857 25.31 6.2 43.1 58 -1.4 29.5 0
16:19 1028 30.36 857 25.31 6.1 42.9 60 -1.2 29.8 0
16:20 1028 30.36 857 25.31 6.1 42.9 58 -1.5 29.3 0
16:21 1028 30.36 857 25.31 6 42.8 59 -1.4 29.5 0
16:22 1028 30.36 857 25.31 6 42.7 60 -1.2 29.9 0
16:23 1028 30.36 857 25.31 5.9 42.7 59 -1.4 29.4 0
16:24 1028 30.36 857 25.31 5.9 42.6 57 -1.9 28.6 0
16:25 1028 30.36 857 25.31 5.8 42.5 56 -2.3 27.8 0
16:26 1028 30.36 857 25.31 5.9 42.6 57 -2 28.3 0
16:27 1028 30.36 857 25.31 5.9 42.6 57 -1.9 28.6 0
16:28 1028 30.36 857 25.31 5.8 42.5 58 -1.9 28.6 0
16:29 1028 30.36 857 25.31 5.8 42.5 58 -1.7 28.9 0
16:30 1028 30.36 857 25.31 5.8 42.5 59 -1.5 29.4 0
16:31 1028 30.36 857 25.31 5.8 42.4 58 -1.8 28.7 0
16:32 1028 30.36 857 25.31 5.8 42.4 58 -1.9 28.7 0
16:33 1028 30.36 857 25.31 5.8 42.4 59 -1.7 29 0
16:34 1028 30.36 857 25.31 5.7 42.3 60 -1.4 29.5 0
16:35 1028 30.36 857 25.31 5.7 42.3 62 -1 30.2 0
16:36 1028 30.36 857 25.31 5.7 42.3 59 -1.7 28.9 0
16:37 1028 30.36 857 25.31 5.7 42.2 61 -1.3 29.7 0
16:38 1028 30.36 857 25.31 5.7 42.3 61 -1.3 29.7 0
16:39 1028 30.36 857 25.31 5.7 42.3 62 -0.9 30.4 0
16:40 1028 30.36 857 25.31 5.7 42.2 62 -1 30.2 0
16:41 1028 30.36 857 25.31 5.7 42.2 64 -0.7 30.8 0
16:42 1028 30.36 857 25.31 5.6 42.2 65 -0.5 31.1 0
16:43 1028 30.36 857 25.31 5.6 42.1 65 -0.5 31 0
16:44 1028 30.36 857 25.31 5.6 42 64 -0.7 30.7 0
16:45 1028 30.36 857 25.31 5.6 42 64 -0.8 30.6 0
16:46 1028 30.36 857 25.31 5.5 42 63 -0.9 30.4 0
16:47 1028 30.36 857 25.31 5.5 41.9 61 -1.3 29.6 0
16:48 1028 30.36 857 25.31 5.5 41.9 60 -1.5 29.2 0
16:49 1028 30.36 857 25.31 5.5 41.9 60 -1.5 29.2 0
16:50 1028 30.36 857 25.31 5.5 42 62 -1.1 30 0
16:51 1028 30.36 857 25.31 5.5 41.8 62 -1.3 29.7 0
16:52 1028 30.36 857 25.31 5.5 41.8 63 -0.9 30.3 0
16:53 1028 30.36 857 25.31 5.4 41.7 63 -1 30.2 0
16:54 1028 30.36 857 25.31 5.4 41.6 62 -1.2 29.8 0
16:55 1028 30.36 857 25.31 5.3 41.6 64 -0.8 30.5 0
16:56 1028 30.36 857 25.31 5.3 41.5 65 -0.7 30.7 0
16:57 1028 30.36 857 25.31 5.2 41.3 65 -0.9 30.3 0
16:58 1028 30.36 857 25.31 5.1 41.2 64 -1.1 30 0
16:59 1028 30.36 857 25.31 5 41 64 -1.2 29.8 0
17:00 1028 30.36 857 25.31 5 41 64 -1.3 29.6 0
17:01 1028 30.36 857 25.31 4.9 40.8 63 -1.5 29.3 0
17:02 1028 30.36 857 25.31 4.9 40.8 65 -1.2 29.9 0
17:03 1028 30.36 857 25.31 4.8 40.7 65 -1.2 29.8 0
17:04 1028 30.36 857 25.31 4.8 40.6 64 -1.4 29.4 0
17:05 1028 30.36 857 25.31 4.8 40.6 63 -1.5 29.2 0
17:06 1028 30.36 857 25.31 4.8 40.6 64 -1.5 29.4 0
17:07 1028 30.36 857 25.31 4.8 40.6 64 -1.4 29.4 0
17:08 1028 30.36 857 25.31 4.8 40.6 64 -1.5 29.4 0
17:09 1028 30.36 857 25.31 4.8 40.6 62 -1.9 28.7 0
17:10 1028 30.36 857 25.31 4.8 40.7 61 -2 28.4 0
17:11 1028 30.36 857 25.31 4.9 40.8 61 -2 28.4 0
17:12 1028 30.36 857 25.31 4.9 40.9 61 -2 28.4 0
17:13 1028 30.36 857 25.31 5 40.9 60 -2.2 28 0
17:14 1028 30.36 857 25.31 5 41 58 -2.5 27.6 0
17:15 1028 30.36 857 25.31 5.1 41.2 58 -2.5 27.4 0
17:16 1028 30.36 857 25.31 5.1 41.2 57 -2.6 27.3 0
17:17 1028 30.36 857 25.31 5.2 41.3 57 -2.7 27.2 0
17:18 1028 30.36 857 25.31 5.2 41.4 57 -2.5 27.4 0
17:19 1028 30.36 857 25.31 5.3 41.5 58 -2.3 27.9 0
17:20 1028 30.36 857 25.31 5.2 41.4 59 -2.1 28.2 0
17:21 1028 30.36 857 25.31 5.2 41.4 61 -1.7 28.9 0
17:22 1028 30.36 857 25.31 5.2 41.4 63 -1.3 29.6 0
17:23 1028 30.36 857 25.31 5.1 41.3 62 -1.5 29.3 0
17:24 1028 30.36 857 25.31 5 41.1 65 -1 30.1 0
17:25 1028 30.36 857 25.31 4.9 40.8 67 -0.7 30.8 0
17:26 1028 30.36 857 25.31 4.7 40.4 67 -1 30.3 0
17:27 1028 30.36 857 25.31 4.4 40 67 -1.1 30 0
17:28 1028 30.36 857 25.31 4.2 39.6 68 -1.2 29.8 0
17:29 1028 30.36 857 25.31 4.1 39.3 68 -1.4 29.5 0
17:30 1028 30.36 857 25.31 4 39.1 67 -1.6 29.1 0
17:31 1028 30.36 857 25.31 3.9 39 68 -1.6 29.2 0
17:32 1028 30.36 857 25.31 3.8 38.9 66 -1.9 28.7 0
17:33 1028 30.36 857 25.31 3.7 38.7 66 -2 28.4 0
17:34 1028 30.36 857 25.31 3.7 38.7 66 -2 28.5 0
17:35 1028 30.36 857 25.31 3.7 38.6 67 -1.9 28.6 0
17:36 1028 30.36 857 25.31 3.6 38.4 67 -2 28.4 0
17:37 1028 30.36 857 25.31 3.5 38.3 67 -2.1 28.2 0
17:38 1028 30.36 857 25.31 3.4 38.2 68 -2 28.5 0
17:39 1028 30.36 857 25.31 3.4 38.1 69 -1.7 28.9 0
17:40 1028 30.36 857 25.31 3.2 37.8 71 -1.6 29.1 0
17:41 1028 30.36 857 25.31 3.2 37.7 72 -1.4 29.4 0
17:42 1028 30.36 857 25.31 3 37.5 72 -1.6 29.1 0
17:43 1028 30.36 857 25.31 3 37.3 72 -1.6 29 0
17:44 1028 30.36 857 25.31 2.9 37.2 72 -1.6 29 0
17:45 1027 30.33 857 25.31 2.8 37 73 -1.5 29.2 0
17:46 1027 30.33 857 25.31 2.7 36.9 75 -1.3 29.7 0
17:47 1028 30.36 857 25.31 2.7 36.8 76 -1.2 29.8 0
17:48 1028 30.36 857 25.31 2.7 36.8 76 -1.2 29.8 0
17:49 1028 30.36 857 25.31 2.6 36.7 76 -1.3 29.7 0
17:50 1028 30.36 857 25.31 2.6 36.6 76 -1.2 29.8 0
17:51 1028 30.36 857 25.31 2.5 36.5 77 -1.2 29.9 0
17:52 1028 30.36 857 25.31 2.5 36.4 77 -1.1 30 0
17:53 1028 30.36 857 25.31 2.5 36.4 78 -1.1 30.1 0
17:54 1028 30.36 857 25.31 2.4 36.4 78 -0.9 30.3 0
17:55 1028 30.36 857 25.31 2.4 36.3 79 -0.8 30.5 0
17:56 1028 30.36 857 25.31 2.3 36.2 80 -0.8 30.6 0
17:57 1028 30.36 857 25.31 2.2 36 81 -0.7 30.7 0
17:58 1028 30.36 857 25.31 2.2 35.9 81 -0.8 30.5 0
17:59 1028 30.36 857 25.31 2.1 35.8 81 -0.8 30.6 0
18:00 1028 30.36 857 25.31 2.1 35.7 81 -0.8 30.6 0
18:01 1028 30.36 857 25.31 2.1 35.8 81 -0.8 30.6 0
18:02 1027 30.33 857 25.31 2.1 35.8 81 -0.8 30.5 0
18:03 1027 30.33 857 25.31 2.1 35.9 81 -0.8 30.6 0
18:04 1027 30.33 857 25.31 2 35.6 82 -0.8 30.6 0
18:05 1027 30.33 857 25.31 1.9 35.4 83 -0.7 30.7 0
18:06 1027 30.33 857 25.31 1.9 35.3 83 -0.7 30.8 0
18:07 1027 30.33 857 25.31 1.8 35.2 83 -0.7 30.7 0
18:08 1027 30.33 857 25.31 1.7 35 84 -0.7 30.8 0
18:09 1027 30.33 857 25.31 1.6 34.9 85 -0.7 30.7 0
18:10 1027 30.33 857 25.31 1.5 34.7 86 -0.7 30.8 0
18:11 1027 30.33 857 25.31 1.4 34.6 86 -0.7 30.8 0
18:12 1027 30.33 857 25.31 1.5 34.7 86 -0.6 30.9 0
18:13 1027 30.33 856 25.28 1.6 34.8 85 -0.7 30.8 0
18:14 1027 30.33 856 25.28 1.8 35.2 85 -0.6 31 0
18:15 1027 30.33 856 25.28 1.8 35.2 84 -0.6 31 0
18:16 1027 30.33 856 25.28 1.9 35.4 84 -0.5 31.1 0
18:17 1027 30.33 856 25.28 1.8 35.2 84 -0.6 31 0
18:18 1027 30.33 857 25.31 1.7 35.1 84 -0.7 30.8 0
18:19 1027 30.33 857 25.31 1.7 35.1 84 -0.7 30.7 0
18:20 1027 30.33 857 25.31 1.7 35 84 -0.7 30.7 0
18:21 1027 30.33 856 25.28 1.6 34.9 84 -0.8 30.6 0
18:22 1027 30.33 856 25.28 1.6 34.9 84 -0.8 30.5 0
18:23 1027 30.33 857 25.31 1.6 34.8 84 -0.9 30.4 0
18:24 1027 30.33 857 25.31 1.6 34.8 83 -1 30.2 0
18:25 1027 30.33 857 25.31 1.5 34.8 82 -1.1 30 0
18:26 1027 30.33 857 25.31 1.4 34.6 83 -1.2 29.9 0
18:27 1027 30.33 856 25.28 1.3 34.3 83 -1.3 29.7 0
18:28 1027 30.33 856 25.28 1.2 34.1 83 -1.3 29.6 0
18:29 1027 30.33 856 25.28 1.2 34.1 83 -1.4 29.5 0
18:30 1027 30.33 856 25.28 1.1 34 83 -1.4 29.5 0
18:31 1027 30.33 856 25.28 1.1 33.9 84 -1.4 29.5 0
18:32 1027 30.33 856 25.28 1 33.8 83 -1.5 29.3 0
18:33 1027 30.33 857 25.31 1 33.8 83 -1.5 29.3 0
18:34 1027 30.33 857 25.31 1.1 34 83 -1.5 29.3 0
18:35 1027 30.33 857 25.31 1.1 34 83 -1.5 29.3 0
18:36 1027 30.33 857 25.31 1.2 34.1 83 -1.4 29.4 0
18:37 1027 30.33 857 25.31 1.2 34.1 83 -1.4 29.5 0
18:38 1027 30.33 857 25.31 1.1 34.1 83 -1.4 29.5 0
18:39 1027 30.33 857 25.31 1 33.8 83 -1.5 29.2 0
18:40 1027 30.33 857 25.31 0.8 33.5 84 -1.5 29.3 0
18:41 1027 30.33 857 25.31 0.7 33.3 85 -1.6 29.2 0
18:42 1027 30.33 857 25.31 0.7 33.2 85 -1.6 29.1 0
18:43 1027 30.33 857 25.31 0.7 33.2 85 -1.6 29.1 0
18:44 1027 30.33 857 25.31 0.6 33.1 85 -1.7 29 0
18:45 1027 30.33 857 25.31 0.6 33.1 84 -1.7 28.9 0
18:46 1027 30.33 857 25.31 0.6 33.1 84 -1.7 28.9 0
18:47 1027 30.33 857 25.31 0.6 33 84 -1.8 28.8 0
18:48 1027 30.33 857 25.31 0.6 33.1 84 -1.8 28.8 0
18:49 1027 30.33 857 25.31 0.7 33.2 83 -1.9 28.6 0
18:50 1027 30.33 857 25.31 0.8 33.5 82 -1.8 28.7 0
18:51 1027 30.33 857 25.31 0.9 33.5 82 -1.8 28.7 0
18:52 1027 30.33 856 25.28 0.9 33.5 83 -1.8 28.8 0
18:53 1027 30.33 856 25.28 0.8 33.5 83 -1.8 28.8 0
18:54 1027 30.33 856 25.28 0.8 33.4 83 -1.8 28.7 0
18:55 1027 30.33 856 25.28 0.8 33.4 82 -1.9 28.5 0
18:56 1027 30.33 856 25.28 0.9 33.6 81 -2 28.5 0
18:57 1027 30.33 856 25.28 1 33.9 81 -1.9 28.6 0
18:58 1027 30.33 856 25.28 1.2 34.1 80 -2 28.5 0
18:59 1027 30.33 856 25.28 1.3 34.3 79 -1.9 28.5 0
19:00 1027 30.33 856 25.28 1.3 34.3 79 -1.9 28.6 0
19:01 1027 30.33 856 25.28 1.3 34.4 79 -1.9 28.6 0
19:02 1027 30.33 856 25.28 1.3 34.4 79 -1.9 28.6 0
19:03 1027 30.33 856 25.28 1.3 34.3 79 -1.9 28.5 0
19:04 1027 30.33 857 25.31 1.1 34 80 -1.9 28.6 0
19:05 1027 30.33 857 25.31 0.8 33.4 82 -2 28.4 0
19:06 1027 30.33 857 25.31 0.6 33.2 83 -1.9 28.5 0
19:07 1027 30.33 857 25.31 0.6 33.1 84 -1.8 28.8 0
19:08 1028 30.36 857 25.31 0.8 33.4 84 -1.7 28.9 0
19:09 1027 30.33 857 25.31 0.8 33.5 84 -1.6 29 0
19:10 1028 30.36 857 25.31 0.9 33.6 83 -1.7 29 0
19:11 1028 30.36 857 25.31 0.9 33.7 84 -1.6 29.2 0
19:12 1028 30.36 857 25.31 1 33.8 83 -1.5 29.3 0
19:13 1028 30.36 857 25.31 1.1 34 83 -1.4 29.4 0
19:14 1028 30.36 857 25.31 1.1 34.1 83 -1.4 29.4 0
19:15 1028 30.36 857 25.31 1.2 34.2 83 -1.3 29.6 0
19:16 1027 30.33 857 25.31 1.3 34.3 82 -1.4 29.5 0
19:17 1027 30.33 857 25.31 1.2 34.2 83 -1.3 29.7 0
19:18 1027 30.33 857 25.31 1.4 34.5 81 -1.5 29.3 0
19:19 1028 30.36 857 25.31 1.8 35.2 78 -1.7 29 0
19:20 1028 30.36 857 25.31 2.2 35.9 77 -1.4 29.4 0
19:21 1028 30.36 857 25.31 2.3 36.1 76 -1.5 29.4 0
19:22 1028 30.36 857 25.31 2.2 36 77 -1.4 29.4 0
19:23 1028 30.36 857 25.31 2.2 36 77 -1.4 29.4 0
19:24 1027 30.33 857 25.31 2.1 35.8 77 -1.5 29.3 0
19:25 1028 30.36 857 25.31 2 35.7 76 -1.8 28.7 0
19:26 1028 30.36 857 25.31 2.1 35.8 75 -1.8 28.7 0
19:27 1028 30.36 857 25.31 2.4 36.4 71 -2.3 27.9 0
19:28 1028 30.36 857 25.31 3 37.3 69 -2.2 28 0
19:29 1028 30.36 857 25.31 3.3 37.9 69 -1.9 28.5 0
19:30 1028 30.36 857 25.31 3.4 38 69 -1.7 28.9 0
19:31 1028 30.36 857 25.31 3.4 38.1 69 -1.8 28.7 0
19:32 1028 30.36 857 25.31 3.4 38 67 -2.2 28 0
19:33 1028 30.36 857 25.31 3.4 38.2 67 -2.1 28.2 0
19:34 1028 30.36 857 25.31 3.5 38.2 67 -2.2 28.1 0
19:35 1028 30.36 857 25.31 3.5 38.2 66 -2.3 27.8 0
19:36 1028 30.36 857 25.31 3.5 38.4 67 -2.1 28.2 0
19:37 1028 30.36 857 25.31 3.5 38.3 67 -2 28.4 0
19:38 1028 30.36 857 25.31 3.4 38.2 66 -2.3 27.9 0
19:39 1028 30.36 857 25.31 3.4 38.1 66 -2.4 27.8 0
19:40 1028 30.36 857 25.31 3.5 38.2 66 -2.3 27.8 0
19:41 1028 30.36 857 25.31 3.5 38.3 66 -2.3 27.8 0
19:42 1028 30.36 857 25.31 3.6 38.4 66 -2.1 28.2 0
19:43 1028 30.36 857 25.31 3.5 38.4 67 -2.1 28.3 0
19:44 1028 30.36 857 25.31 3.3 38 67 -2.2 28.1 0
19:45 1028 30.36 857 25.31 3.3 38 68 -2.1 28.2 0
19:46 1028 30.36 857 25.31 3.3 37.9 68 -2.1 28.1 0
19:47 1028 30.36 857 25.31 3.3 37.9 68 -2.1 28.3 0
19:48 1028 30.36 857 25.31 3.3 37.9 67 -2.2 28.1 0
19:49 1028 30.36 857 25.31 3.4 38 68 -2.1 28.3 0
19:50 1028 30.36 857 25.31 3.3 38 68 -2 28.4 0
19:51 1028 30.36 857 25.31 3.3 38 67 -2.3 27.9 0
19:52 1028 30.36 857 25.31 3.5 38.3 66 -2.2 28 0
19:53 1028 30.36 857 25.31 3.6 38.4 66 -2.1 28.2 0
19:54 1028 30.36 857 25.31 3.5 38.3 66 -2.2 28 0
19:55 1028 30.36 857 25.31 3.5 38.4 67 -2 28.4 0
19:56 1028 30.36 857 25.31 3.3 38 68 -1.9 28.6 0
19:57 1028 30.36 857 25.31 3.1 37.6 69 -2 28.4 0
19:58 1028 30.36 857 25.31 3.1 37.6 69 -2.1 28.2 0
19:59 1028 30.36 857 25.31 3 37.4 69 -2.1 28.2 0
20:00 1028 30.36 857 25.31 2.9 37.2 70 -2.1 28.3 0
20:01 1028 30.36 857 25.31 2.8 37.1 70 -2.1 28.2 0
20:02 1028 30.36 857 25.31 2.8 37 71 -2.1 28.3 0
20:03 1028 30.36 857 25.31 2.5 36.5 72 -2.1 28.3 0
20:04 1028 30.36 857 25.31 2.3 36.1 73 -2.1 28.2 0
20:05 1028 30.36 857 25.31 1.8 35.2 75 -2.1 28.2 0
20:06 1028 30.36 857 25.31 1.4 34.5 78 -2.1 28.3 0
20:07 1028 30.36 857 25.31 1.2 34.1 79 -2.1 28.2 0
20:08 1028 30.36 857 25.31 1 33.8 80 -2.2 28.1 0
20:09 1028 30.36 857 25.31 0.9 33.5 81 -2.1 28.2 0
20:10 1028 30.36 857 25.31 0.8 33.4 81 -2.2 28.1 0
20:11 1028 30.36 857 25.31 0.7 33.3 81 -2.2 28.1 0
20:12 1028 30.36 857 25.31 0.8 33.4 81 -2.1 28.2 0
20:13 1028 30.36 857 25.31 0.7 33.3 81 -2.1 28.2 0
20:14 1028 30.36 857 25.31 0.9 33.6 80 -2.3 27.9 0
20:15 1028 30.36 857 25.31 1.3 34.3 76 -2.4 27.6 0
20:16 1028 30.36 857 25.31 1.8 35.3 73 -2.5 27.5 0
20:17 1028 30.36 857 25.31 2.3 36.1 72 -2.2 28 0
20:18 1028 30.36 857 25.31 2.2 36 73 -2.1 28.2 0
20:19 1028 30.36 857 25.31 1.8 35.3 76 -2 28.4 0
20:20 1028 30.36 857 25.31 1.6 34.8 77 -2.1 28.2 0
20:21 1028 30.36 857 25.31 1.2 34.2 79 -2.1 28.2 0
20:22 1028 30.36 857 25.31 1.1 33.9 78 -2.3 27.9 0
20:23 1028 30.36 857 25.31 1.3 34.4 77 -2.3 27.9 0
20:24 1028 30.36 857 25.31 1.5 34.6 77 -2.1 28.2 0
20:25 1028 30.36 857 25.31 1.1 34 80 -2 28.4 0
20:26 1028 30.36 857 25.31 0.9 33.5 81 -2 28.4 0
20:27 1028 30.36 857 25.31 0.8 33.5 81 -2 28.3 0
20:28 1028 30.36 857 25.31 1 33.7 80 -2.1 28.2 0
20:29 1028 30.36 857 25.31 1 33.7 80 -2.1 28.1 0
20:30 1028 30.36 857 25.31 0.9 33.6 80 -2.1 28.1 0
20:31 1028 30.36 857 25.31 0.9 33.6 80 -2.2 28 0
20:32 1028 30.36 857 25.31 1 33.8 79 -2.2 28 0
20:33 1028 30.36 857 25.31 1.2 34.2 77 -2.5 27.6 0
20:34 1028 30.36 857 25.31 1.6 34.8 75 -2.3 27.8 0
20:35 1028 30.36 857 25.31 1.5 34.6 76 -2.3 27.9 0
20:36 1028 30.36 857 25.31 1.5 34.7 76 -2.3 27.8 0
20:37 1028 30.36 857 25.31 1.6 34.9 75 -2.3 27.9 0
20:38 1028 30.36 857 25.31 1.3 34.4 77 -2.3 27.9 0
20:39 1028 30.36 857 25.31 1.1 34 78 -2.3 27.8 0
20:40 1028 30.36 857 25.31 1 33.7 78 -2.4 27.7 0
20:41 1028 30.36 857 25.31 0.9 33.7 77 -2.6 27.3 0
20:42 1028 30.36 857 25.31 0.9 33.6 78 -2.6 27.4 0
20:43 1028 30.36 857 25.31 0.7 33.3 79 -2.6 27.4 0
20:44 1028 30.36 857 25.31 0.6 33 79 -2.6 27.3 0
20:45 1028 30.36 857 25.31 0.6 33 79 -2.6 27.3 0
20:46 1028 30.36 857 25.31 0.6 33.1 79 -2.6 27.4 0
20:47 1028 30.36 857 25.31 0.7 33.2 78 -2.6 27.3 0
20:48 1028 30.36 857 25.31 0.7 33.3 78 -2.6 27.3 0
20:49 1028 30.36 857 25.31 0.7 33.2 79 -2.6 27.3 0
20:50 1028 30.36 857 25.31 0.7 33.2 79 -2.6 27.3 0
20:51 1028 30.36 857 25.31 0.6 33.1 79 -2.6 27.3 0
20:52 1028 30.36 857 25.31 0.6 33.1 79 -2.6 27.3 0
20:53 1028 30.36 857 25.31 0.7 33.2 78 -2.7 27.2 0
20:54 1028 30.36 857 25.31 0.8 33.5 77 -2.7 27.1 0
20:55 1028 30.36 857 25.31 1.1 33.9 76 -2.7 27.2 0
20:56 1028 30.36 857 25.31 1.3 34.4 75 -2.6 27.3 0
20:57 1028 30.36 857 25.31 1.5 34.7 74 -2.6 27.3 0
20:58 1028 30.36 857 25.31 1.7 35.1 73 -2.6 27.4 0
20:59 1028 30.36 857 25.31 1.9 35.4 73 -2.5 27.5 0
21:00 1028 30.36 857 25.31 2 35.6 72 -2.5 27.6 0
21:01 1028 30.36 857 25.31 1.9 35.5 73 -2.4 27.6 0
21:02 1028 30.36 857 25.31 1.7 35 75 -2.3 27.8 0
21:03 1028 30.36 857 25.31 1.5 34.8 75 -2.5 27.5 0
21:04 1028 30.36 857 25.31 1.4 34.5 76 -2.3 27.8 0
21:05 1028 30.36 857 25.31 1.2 34.2 78 -2.3 27.9 0
21:06 1028 30.36 857 25.31 1.1 34 78 -2.4 27.8 0
21:07 1028 30.36 857 25.31 1.1 34.1 77 -2.4 27.7 0
21:08 1028 30.36 857 25.31 1.2 34.1 77 -2.3 27.8 0
21:09 1028 30.36 857 25.31 1.2 34.2 76 -2.5 27.4 0
21:10 1028 30.36 857 25.31 1.4 34.5 75 -2.6 27.4 0
21:11 1028 30.36 857 25.31 1.6 34.8 74 -2.5 27.4 0
21:12 1028 30.36 857 25.31 1.7 35 74 -2.5 27.6 0
21:13 1028 30.36 857 25.31 1.7 35 74 -2.4 27.7 0
21:14 1028 30.36 857 25.31 1.7 35.1 75 -2.2 28.1 0
21:15 1028 30.36 857 25.31 1.9 35.4 75 -2.1 28.2 0
21:16 1028 30.36 857 25.31 2.2 35.9 73 -2.2 28 0
21:17 1028 30.36 857 25.31 2.4 36.4 72 -2.1 28.3 0
21:18 1028 30.36 857 25.31 2.7 36.8 71 -2.1 28.2 0
21:19 1028 30.36 857 25.31 2.8 37.1 70 -2 28.4 0
21:20 1028 30.36 857 25.31 3 37.4 70 -2 28.3 0
21:21 1028 30.36 857 25.31 3.1 37.5 70 -1.9 28.5 0
21:22 1028 30.36 857 25.31 3.1 37.6 69 -1.9 28.6 0
21:23 1028 30.36 857 25.31 3.1 37.7 70 -1.9 28.6 0
21:24 1028 30.36 857 25.31 3.1 37.5 69 -2.1 28.3 0
21:25 1028 30.36 857 25.31 3.2 37.7 69 -2 28.5 0
21:26 1028 30.36 857 25.31 3.3 37.9 68 -2.1 28.2 0
21:27 1028 30.36 857 25.31 3.5 38.3 65 -2.4 27.6 0
21:28 1028 30.36 857 25.31 3.8 38.8 65 -2.2 28.1 0
21:29 1028 30.36 857 25.31 3.9 39 66 -1.9 28.6 0
21:30 1028 30.36 857 25.31 3.8 38.9 66 -1.9 28.6 0
21:31 1028 30.36 857 25.31 3.8 38.8 66 -1.9 28.5 0
21:32 1028 30.36 857 25.31 3.8 38.9 64 -2.3 27.8 0
21:33 1028 30.36 857 25.31 4 39.2 63 -2.4 27.8 0
21:34 1028 30.36 857 25.31 4.2 39.6 62 -2.3 27.8 0
21:35 1028 30.36 857 25.31 4.3 39.8 63 -2.1 28.2 0
21:36 1028 30.36 857 25.31 4.4 39.8 63 -2 28.4 0
21:37 1028 30.36 857 25.31 4.3 39.7 62 -2.4 27.8 0
21:38 1028 30.36 857 25.31 4.3 39.7 63 -2.2 28 0
21:39 1028 30.36 857 25.31 4.3 39.7 64 -2 28.4 0
21:40 1028 30.36 857 25.31 4.2 39.5 63 -2.2 28.1 0
21:41 1028 30.36 857 25.31 4.2 39.5 64 -2.1 28.2 0
21:42 1028 30.36 857 25.31 4.2 39.5 64 -2.1 28.2 0
21:43 1028 30.36 857 25.31 4.2 39.5 64 -2 28.3 0
21:44 1028 30.36 857 25.31 4.2 39.5 64 -2.1 28.2 0
21:45 1028 30.36 857 25.31 4.1 39.4 64 -2 28.3 0
21:46 1028 30.36 857 25.31 4.1 39.4 64 -2.1 28.3 0
21:47 1028 30.36 857 25.31 4.1 39.3 63 -2.3 27.8 0
21:48 1028 30.36 857 25.31 4.1 39.4 64 -2.1 28.2 0
21:49 1028 30.36 857 25.31 4.1 39.4 63 -2.3 27.9 0
21:50 1028 30.36 857 25.31 4.1 39.5 64 -2.1 28.2 0
21:51 1028 30.36 857 25.31 4.1 39.4 63 -2.3 27.9 0
21:52 1028 30.36 857 25.31 4.2 39.5 63 -2.3 27.9 0
21:53 1028 30.36 857 25.31 4.2 39.5 63 -2.2 28 0
21:54 1028 30.36 857 25.31 4.1 39.4 64 -2.2 28.1 0
21:55 1028 30.36 857 25.31 4.1 39.3 64 -2.2 28.1 0
21:56 1028 30.36 857 25.31 4.1 39.3 64 -2.1 28.2 0
21:57 1028 30.36 857 25.31 4 39.3 64 -2.1 28.2 0
21:58 1028 30.36 857 25.31 4 39.1 64 -2.2 28 0
21:59 1028 30.36 857 25.31 3.9 39.1 65 -2.1 28.2 0
22:00 1028 30.36 857 25.31 3.9 39 65 -2.1 28.3 0
22:01 1028 30.36 857 25.31 3.8 38.9 65 -2.1 28.2 0
22:02 1028 30.36 857 25.31 3.8 38.9 65 -2.1 28.1 0
22:03 1028 30.36 857 25.31 3.8 38.8 65 -2.2 28.1 0
22:04 1028 30.36 858 25.34 3.7 38.7 65 -2.3 27.8 0
22:05 1028 30.36 858 25.34 3.8 38.8 64 -2.3 27.8 0
22:06 1028 30.36 858 25.34 3.9 38.9 65 -2.2 28 0
22:07 1028 30.36 858 25.34 3.8 38.8 65 -2.2 28.1 0
22:08 1028 30.36 858 25.34 3.8 38.8 65 -2.2 28.1 0
22:09 1028 30.36 858 25.34 3.8 38.8 65 -2.1 28.2 0
22:10 1028 30.36 858 25.34 3.7 38.7 65 -2.2 28 0
22:11 1029 30.39 858 25.34 3.7 38.7 65 -2.1 28.1 0
22:12 1029 30.39 858 25.34 3.6 38.6 66 -2 28.4 0
22:13 1029 30.39 858 25.34 3.6 38.5 67 -2 28.5 0
22:14 1028 30.36 858 25.34 3.4 38.2 68 -2 28.4 0
22:15 1028 30.36 858 25.34 3.3 37.9 68 -1.9 28.5 0
22:16 1028 30.36 858 25.34 3.2 37.8 69 -2 28.4 0
22:17 1028 30.36 858 25.34 3.1 37.5 69 -2 28.3 0
22:18 1028 30.36 858 25.34 3 37.4 70 -2 28.4 0
22:19 1028 30.36 858 25.34 2.9 37.3 70 -2 28.4 0
22:20 1028 30.36 858 25.34 2.8 37.1 70 -2.1 28.2 0
22:21 1028 30.36 858 25.34 2.8 37.1 70 -2.1 28.2 0
22:22 1028 30.36 858 25.34 2.8 37.1 70 -2.2 28 0
22:23 1028 30.36 858 25.34 2.8 37 70 -2.2 28 0
22:24 1028 30.36 858 25.34 2.8 37 69 -2.3 27.9 0
22:25 1028 30.36 858 25.34 2.8 37 68 -2.5 27.5 0
22:26 1028 30.36 858 25.34 2.9 37.2 68 -2.5 27.5 0
22:27 1028 30.36 858 25.34 3 37.4 67 -2.6 27.4 0
22:28 1028 30.36 858 25.34 3 37.5 66 -2.6 27.2 0
22:29 1028 30.36 858 25.34 3.2 37.7 65 -2.7 27.1 0
22:30 1028 30.36 858 25.34 3.3 38 64 -2.9 26.9 0
22:31 1028 30.36 858 25.34 3.5 38.2 63 -2.9 26.8 0
22:32 1028 30.36 858 25.34 3.5 38.3 63 -2.8 27 0
22:33 1028 30.36 858 25.34 3.6 38.4 66 -2.1 28.1 0
22:34 1028 30.36 858 25.34 3.3 37.9 68 -2 28.4 0
22:35 1028 30.36 858 25.34 2.9 37.3 68 -2.4 27.8 0
22:36 1028 30.36 858 25.34 2.7 36.9 70 -2.3 27.9 0
22:37 1028 30.36 858 25.34 2.6 36.6 70 -2.4 27.7 0
22:38 1028 30.36 858 25.34 2.5 36.5 68 -2.7 27.1 0
22:39 1029 30.39 858 25.34 2.5 36.5 68 -2.7 27.1 0
22:40 1029 30.39 858 25.34 2.6 36.7 67 -2.8 26.9 0
22:41 1029 30.39 858 25.34 2.7 36.9 65 -3.2 26.2 0
22:42 1029 30.39 858 25.34 2.9 37.3 63 -3.3 26 0
22:43 1029 30.39 858 25.34 3.3 37.9 62 -3.3 26 0
22:44 1029 30.39 858 25.34 3.7 38.6 60 -3.4 25.9 0
22:45 1029 30.39 858 25.34 4 39.2 58 -3.4 25.9 0
22:46 1029 30.39 858 25.34 4.1 39.5 59 -3.2 26.2 0
22:47 1029 30.39 858 25.34 4.1 39.5 59 -3.3 26.1 0
22:48 1029 30.39 858 25.34 4.2 39.5 59 -3 26.6 0
22:49 1029 30.39 858 25.34 4 39.3 60 -3 26.7 0
22:50 1029 30.39 858 25.34 3.9 39.1 62 -2.7 27.1 0
22:51 1029 30.39 858 25.34 3.8 38.8 63 -2.7 27.1 0
22:52 1029 30.39 858 25.34 3.6 38.4 64 -2.6 27.3 0
22:53 1029 30.39 858 25.34 3.4 38.2 63 -3 26.7 0
22:54 1029 30.39 858 25.34 3.4 38.2 64 -2.7 27.2 0
22:55 1029 30.39 858 25.34 3.4 38.1 65 -2.6 27.3 0
22:56 1029 30.39 858 25.34 3.3 38 65 -2.6 27.3 0
22:57 1029 30.39 858 25.34 3.3 37.9 65 -2.8 27 0
22:58 1029 30.39 858 25.34 3.3 37.9 65 -2.8 27 0
22:59 1029 30.39 858 25.34 3.3 37.9 65 -2.6 27.2 0
23:00 1029 30.39 858 25.34 3.1 37.7 65 -2.7 27.1 0
23:01 1029 30.39 858 25.34 3.1 37.5 64 -3 26.6 0
23:02 1029 30.39 858 25.34 3.1 37.6 64 -2.9 26.7 0
23:03 1029 30.39 858 25.34 3.2 37.7 65 -2.9 26.8 0
23:04 1029 30.39 858 25.34 3.2 37.7 65 -2.7 27.1 0
23:05 1029 30.39 858 25.34 3 37.4 66 -2.7 27.1 0
23:06 1029 30.39 858 25.34 2.8 37.1 67 -2.6 27.2 0
23:07 1029 30.39 858 25.34 2.7 36.8 68 -2.6 27.2 0
23:08 1029 30.39 858 25.34 2.6 36.7 68 -2.6 27.3 0
23:09 1029 30.39 858 25.34 2.5 36.6 68 -2.7 27.2 0
23:10 1029 30.39 858 25.34 2.5 36.5 68 -2.8 27 0
23:11 1029 30.39 858 25.34 2.5 36.5 68 -2.8 26.9 0
23:12 1029 30.39 858 25.34 2.6 36.6 68 -2.8 26.9 0
23:13 1029 30.39 858 25.34 2.6 36.7 68 -2.7 27.1 0
23:14 1029 30.39 858 25.34 2.7 36.8 67 -2.9 26.7 0
23:15 1029 30.39 858 25.34 2.8 37.1 66 -2.8 26.9 0
23:16 1029 30.39 858 25.34 2.9 37.1 65 -3 26.7 0
23:17 1029 30.39 858 25.34 2.9 37.3 65 -3 26.7 0
23:18 1029 30.39 858 25.34 3 37.4 66 -2.8 26.9 0
23:19 1029 30.39 858 25.34 3 37.4 64 -3.2 26.3 0
23:20 1029 30.39 858 25.34 3.1 37.6 63 -3.3 26.1 0
23:21 1029 30.39 858 25.34 3.3 37.9 63 -3.2 26.3 0
23:22 1029 30.39 858 25.34 3.4 38.1 62 -3.2 26.2 0
23:23 1029 30.39 858 25.34 3.5 38.3 62 -3 26.6 0
23:24 1029 30.39 858 25.34 3.5 38.2 63 -3 26.6 0
23:25 1029 30.39 858 25.34 3.4 38.1 63 -3 26.6 0
23:26 1029 30.39 858 25.34 3.3 38 64 -2.8 27 0
23:27 1029 30.39 858 25.34 3.1 37.6 64 -3 26.6 0
23:28 1029 30.39 858 25.34 2.9 37.3 65 -3 26.5 0
23:29 1029 30.39 858 25.34 2.9 37.2 64 -3.2 26.3 0
23:30 1029 30.39 858 25.34 2.9 37.3 64 -3.2 26.3 0
23:31 1029 30.39 858 25.34 2.9 37.2 65 -3 26.6 0
23:32 1029 30.39 858 25.34 2.9 37.2 65 -3.1 26.5 0
23:33 1029 30.39 858 25.34 2.8 37.1 65 -3.1 26.3 0
23:34 1029 30.39 858 25.34 2.9 37.2 64 -3.1 26.3 0
23:35 1029 30.39 858 25.34 2.9 37.2 65 -3.1 26.4 0
23:36 1029 30.39 858 25.34 2.8 37.1 64 -3.4 25.9 0
23:37 1029 30.39 858 25.34 3 37.4 63 -3.4 26 0
23:38 1029 30.39 858 25.34 3.1 37.6 63 -3.2 26.2 0
23:39 1029 30.39 858 25.34 3.1 37.5 63 -3.2 26.2 0
23:40 1029 30.39 858 25.34 3 37.4 65 -2.9 26.8 0
23:41 1029 30.39 858 25.34 2.8 37 66 -3 26.6 0
23:42 1029 30.39 858 25.34 2.7 36.9 66 -3.1 26.5 0
23:43 1029 30.39 858 25.34 2.7 36.8 66 -3 26.5 0
23:44 1029 30.39 858 25.34 2.6 36.6 68 -2.8 26.9 0
23:45 1029 30.39 858 25.34 2.3 36.2 68 -2.9 26.8 0
23:46 1029 30.39 858 25.34 2.2 35.9 69 -2.9 26.9 0
23:47 1029 30.39 858 25.34 2.1 35.7 70 -2.8 27 0
23:48 1029 30.39 858 25.34 2 35.5 71 -2.8 26.9 0
23:49 1029 30.39 858 25.34 1.8 35.3 72 -2.8 27 0
23:50 1029 30.39 858 25.34 1.7 35.1 71 -2.9 26.8 0
23:51 1029 30.39 858 25.34 1.7 35.1 72 -2.9 26.8 0
23:52 1029 30.39 858 25.34 1.7 35 71 -2.9 26.7 0
23:53 1029 30.39 858 25.34 1.8 35.2 70 -3 26.5 0
23:54 1029 30.39 858 25.34 2 35.5 69 -3.1 26.4 0
23:55 1029 30.39 858 25.34 2.1 35.8 68 -3.2 26.3 0
23:56 1029 30.39 858 25.34 2.2 35.9 68 -3.1 26.4 0
23:57 1029 30.39 858 25.34 2.1 35.8 69 -3 26.7 0
23:58 1029 30.39 858 25.34 2 35.5 70 -2.9 26.8 0
23:59 1029 30.39 858 25.34 1.7 35.1 71 -2.9 26.7 0
24:00 1029 30.39 858 25.34 1.6 34.9 72 -2.9 26.8 0